<?xml version="1.0" encoding="UTF-8" standalone="no" ?>
<gpx xmlns="http://www.topografix.com/GPX/1/1" xmlns:xsi="http://www.w3.org/2001/XMLSchema-instance" xsi:schemaLocation="http://www.topografix.com/GPX/1/1 http://www.topografix.com/GPX/1/1/gpx.xsd" version="1.1" creator="VisuGPX - https://www.visugpx.com">
  <metadata>
    <name>Refuge de Belmont</name>
    <desc><![CDATA[Boucle VTT...tous en single à la descente]]></desc>
  </metadata>
  <trk>
    <name><![CDATA[Belmont vs Bonnet Vert-19677118]]></name>
    <extensions>
      <line xmlns="http://www.topografix.com/GPX/gpx_style/0/2">
        <color>0000FF</color>
        <width>4</width>
      </line>
    </extensions>
    <trkseg>
      <trkpt lat="44.41584" lon="6.71582">
        <ele>1314</ele>
        <time>2024-10-21T08:22:31Z</time>
      </trkpt>
      <trkpt lat="44.41593" lon="6.71575">
        <ele>1314</ele>
        <time>2024-10-21T08:22:33Z</time>
      </trkpt>
      <trkpt lat="44.41611" lon="6.71565">
        <ele>1316</ele>
        <time>2024-10-21T08:22:38Z</time>
      </trkpt>
      <trkpt lat="44.41617" lon="6.71546">
        <ele>1317</ele>
        <time>2024-10-21T08:22:41Z</time>
      </trkpt>
      <trkpt lat="44.4162" lon="6.7153">
        <ele>1318</ele>
        <time>2024-10-21T08:22:44Z</time>
      </trkpt>
      <trkpt lat="44.41614" lon="6.71487">
        <ele>1320</ele>
        <time>2024-10-21T08:22:51Z</time>
      </trkpt>
      <trkpt lat="44.41617" lon="6.71469">
        <ele>1324</ele>
        <time>2024-10-21T08:22:55Z</time>
      </trkpt>
      <trkpt lat="44.41607" lon="6.71442">
        <ele>1326</ele>
        <time>2024-10-21T08:23:00Z</time>
      </trkpt>
      <trkpt lat="44.41589" lon="6.7138">
        <ele>1333</ele>
        <time>2024-10-21T08:23:11Z</time>
      </trkpt>
      <trkpt lat="44.41592" lon="6.71372">
        <ele>1335</ele>
        <time>2024-10-21T08:23:12Z</time>
      </trkpt>
      <trkpt lat="44.41603" lon="6.71379">
        <ele>1336</ele>
        <time>2024-10-21T08:23:15Z</time>
      </trkpt>
      <trkpt lat="44.41618" lon="6.71395">
        <ele>1337</ele>
        <time>2024-10-21T08:23:20Z</time>
      </trkpt>
      <trkpt lat="44.41649" lon="6.71416">
        <ele>1340</ele>
        <time>2024-10-21T08:23:28Z</time>
      </trkpt>
      <trkpt lat="44.41668" lon="6.71426">
        <ele>1342</ele>
        <time>2024-10-21T08:23:32Z</time>
      </trkpt>
      <trkpt lat="44.41693" lon="6.71431">
        <ele>1345</ele>
        <time>2024-10-21T08:23:38Z</time>
      </trkpt>
      <trkpt lat="44.41717" lon="6.71424">
        <ele>1350</ele>
        <time>2024-10-21T08:23:44Z</time>
      </trkpt>
      <trkpt lat="44.41743" lon="6.71411">
        <ele>1357</ele>
        <time>2024-10-21T08:23:50Z</time>
      </trkpt>
      <trkpt lat="44.41755" lon="6.71397">
        <ele>1360</ele>
        <time>2024-10-21T08:23:54Z</time>
      </trkpt>
      <trkpt lat="44.41768" lon="6.71388">
        <ele>1361</ele>
        <time>2024-10-21T08:23:57Z</time>
      </trkpt>
      <trkpt lat="44.41785" lon="6.71385">
        <ele>1362</ele>
        <time>2024-10-21T08:24:01Z</time>
      </trkpt>
      <trkpt lat="44.41802" lon="6.71388">
        <ele>1361</ele>
        <time>2024-10-21T08:24:05Z</time>
      </trkpt>
      <trkpt lat="44.41808" lon="6.71382">
        <ele>1363</ele>
        <time>2024-10-21T08:24:07Z</time>
      </trkpt>
      <trkpt lat="44.41805" lon="6.71374">
        <ele>1364</ele>
        <time>2024-10-21T08:24:09Z</time>
      </trkpt>
      <trkpt lat="44.41746" lon="6.71358">
        <ele>1366</ele>
        <time>2024-10-21T08:24:23Z</time>
      </trkpt>
      <trkpt lat="44.41736" lon="6.71354">
        <ele>1365</ele>
        <time>2024-10-21T08:24:25Z</time>
      </trkpt>
      <trkpt lat="44.4173" lon="6.71345">
        <ele>1366</ele>
        <time>2024-10-21T08:24:27Z</time>
      </trkpt>
      <trkpt lat="44.41717" lon="6.71344">
        <ele>1365</ele>
        <time>2024-10-21T08:24:30Z</time>
      </trkpt>
      <trkpt lat="44.41698" lon="6.71348">
        <ele>1362</ele>
        <time>2024-10-21T08:24:35Z</time>
      </trkpt>
      <trkpt lat="44.41687" lon="6.71343">
        <ele>1361</ele>
        <time>2024-10-21T08:24:37Z</time>
      </trkpt>
      <trkpt lat="44.41673" lon="6.7133">
        <ele>1362</ele>
        <time>2024-10-21T08:24:41Z</time>
      </trkpt>
      <trkpt lat="44.41667" lon="6.71314">
        <ele>1365</ele>
        <time>2024-10-21T08:24:44Z</time>
      </trkpt>
      <trkpt lat="44.41671" lon="6.71299">
        <ele>1369</ele>
        <time>2024-10-21T08:24:47Z</time>
      </trkpt>
      <trkpt lat="44.41679" lon="6.71285">
        <ele>1372</ele>
        <time>2024-10-21T08:24:50Z</time>
      </trkpt>
      <trkpt lat="44.41698" lon="6.71282">
        <ele>1375</ele>
        <time>2024-10-21T08:24:54Z</time>
      </trkpt>
      <trkpt lat="44.41707" lon="6.71272">
        <ele>1377</ele>
        <time>2024-10-21T08:24:57Z</time>
      </trkpt>
      <trkpt lat="44.41717" lon="6.71257">
        <ele>1381</ele>
        <time>2024-10-21T08:25:01Z</time>
      </trkpt>
      <trkpt lat="44.41723" lon="6.71237">
        <ele>1386</ele>
        <time>2024-10-21T08:25:04Z</time>
      </trkpt>
      <trkpt lat="44.4172" lon="6.71235">
        <ele>1386</ele>
        <time>2024-10-21T08:25:05Z</time>
      </trkpt>
      <trkpt lat="44.41711" lon="6.71239">
        <ele>1385</ele>
        <time>2024-10-21T08:25:07Z</time>
      </trkpt>
      <trkpt lat="44.41697" lon="6.71251">
        <ele>1381</ele>
        <time>2024-10-21T08:25:11Z</time>
      </trkpt>
      <trkpt lat="44.41684" lon="6.71251">
        <ele>1380</ele>
        <time>2024-10-21T08:25:14Z</time>
      </trkpt>
      <trkpt lat="44.41671" lon="6.71244">
        <ele>1381</ele>
        <time>2024-10-21T08:25:17Z</time>
      </trkpt>
      <trkpt lat="44.41649" lon="6.71181">
        <ele>1393</ele>
        <time>2024-10-21T08:25:29Z</time>
      </trkpt>
      <trkpt lat="44.41643" lon="6.71134">
        <ele>1402</ele>
        <time>2024-10-21T08:25:37Z</time>
      </trkpt>
      <trkpt lat="44.41631" lon="6.71109">
        <ele>1405</ele>
        <time>2024-10-21T08:25:42Z</time>
      </trkpt>
      <trkpt lat="44.41624" lon="6.71078">
        <ele>1411</ele>
        <time>2024-10-21T08:25:47Z</time>
      </trkpt>
      <trkpt lat="44.41612" lon="6.71048">
        <ele>1415</ele>
        <time>2024-10-21T08:25:53Z</time>
      </trkpt>
      <trkpt lat="44.41596" lon="6.71016">
        <ele>1419</ele>
        <time>2024-10-21T08:26:00Z</time>
      </trkpt>
      <trkpt lat="44.416" lon="6.71005">
        <ele>1422</ele>
        <time>2024-10-21T08:26:02Z</time>
      </trkpt>
      <trkpt lat="44.41612" lon="6.71015">
        <ele>1423</ele>
        <time>2024-10-21T08:26:05Z</time>
      </trkpt>
      <trkpt lat="44.41629" lon="6.71038">
        <ele>1422</ele>
        <time>2024-10-21T08:26:10Z</time>
      </trkpt>
      <trkpt lat="44.41662" lon="6.71045">
        <ele>1427</ele>
        <time>2024-10-21T08:26:18Z</time>
      </trkpt>
      <trkpt lat="44.41676" lon="6.71041">
        <ele>1430</ele>
        <time>2024-10-21T08:26:22Z</time>
      </trkpt>
      <trkpt lat="44.41707" lon="6.71038">
        <ele>1434</ele>
        <time>2024-10-21T08:26:29Z</time>
      </trkpt>
      <trkpt lat="44.41749" lon="6.71021">
        <ele>1442</ele>
        <time>2024-10-21T08:26:39Z</time>
      </trkpt>
      <trkpt lat="44.41804" lon="6.71014">
        <ele>1446</ele>
        <time>2024-10-21T08:26:52Z</time>
      </trkpt>
      <trkpt lat="44.41864" lon="6.70984">
        <ele>1454</ele>
        <time>2024-10-21T08:27:07Z</time>
      </trkpt>
      <trkpt lat="44.41884" lon="6.70977">
        <ele>1456</ele>
        <time>2024-10-21T08:27:12Z</time>
      </trkpt>
      <trkpt lat="44.41903" lon="6.70959">
        <ele>1461</ele>
        <time>2024-10-21T08:27:17Z</time>
      </trkpt>
      <trkpt lat="44.41913" lon="6.70947">
        <ele>1465</ele>
        <time>2024-10-21T08:27:20Z</time>
      </trkpt>
      <trkpt lat="44.41907" lon="6.70937">
        <ele>1467</ele>
        <time>2024-10-21T08:27:22Z</time>
      </trkpt>
      <trkpt lat="44.41865" lon="6.7092">
        <ele>1469</ele>
        <time>2024-10-21T08:27:32Z</time>
      </trkpt>
      <trkpt lat="44.41822" lon="6.70898">
        <ele>1474</ele>
        <time>2024-10-21T08:27:43Z</time>
      </trkpt>
      <trkpt lat="44.4181" lon="6.70896">
        <ele>1476</ele>
        <time>2024-10-21T08:27:46Z</time>
      </trkpt>
      <trkpt lat="44.41765" lon="6.70913">
        <ele>1473</ele>
        <time>2024-10-21T08:27:57Z</time>
      </trkpt>
      <trkpt lat="44.41752" lon="6.70915">
        <ele>1473</ele>
        <time>2024-10-21T08:28:00Z</time>
      </trkpt>
      <trkpt lat="44.41754" lon="6.70901">
        <ele>1476</ele>
        <time>2024-10-21T08:28:02Z</time>
      </trkpt>
      <trkpt lat="44.41772" lon="6.70884">
        <ele>1480</ele>
        <time>2024-10-21T08:28:07Z</time>
      </trkpt>
      <trkpt lat="44.41778" lon="6.70865">
        <ele>1485</ele>
        <time>2024-10-21T08:28:11Z</time>
      </trkpt>
      <trkpt lat="44.41791" lon="6.70844">
        <ele>1491</ele>
        <time>2024-10-21T08:28:15Z</time>
      </trkpt>
      <trkpt lat="44.41806" lon="6.70834">
        <ele>1494</ele>
        <time>2024-10-21T08:28:19Z</time>
      </trkpt>
      <trkpt lat="44.41829" lon="6.70825">
        <ele>1497</ele>
        <time>2024-10-21T08:28:25Z</time>
      </trkpt>
      <trkpt lat="44.41878" lon="6.70833">
        <ele>1498</ele>
        <time>2024-10-21T08:28:36Z</time>
      </trkpt>
      <trkpt lat="44.41897" lon="6.7084">
        <ele>1497</ele>
        <time>2024-10-21T08:28:41Z</time>
      </trkpt>
      <trkpt lat="44.41901" lon="6.70835">
        <ele>1499</ele>
        <time>2024-10-21T08:28:42Z</time>
      </trkpt>
      <trkpt lat="44.41903" lon="6.7083">
        <ele>1500</ele>
        <time>2024-10-21T08:28:43Z</time>
      </trkpt>
      <trkpt lat="44.41866" lon="6.70801">
        <ele>1506</ele>
        <time>2024-10-21T08:28:53Z</time>
      </trkpt>
      <trkpt lat="44.41802" lon="6.70786">
        <ele>1505</ele>
        <time>2024-10-21T08:29:08Z</time>
      </trkpt>
      <trkpt lat="44.41757" lon="6.70788">
        <ele>1501</ele>
        <time>2024-10-21T08:29:19Z</time>
      </trkpt>
      <trkpt lat="44.41658" lon="6.70651">
        <ele>1501</ele>
        <time>2024-10-21T08:29:51Z</time>
      </trkpt>
      <trkpt lat="44.41655" lon="6.70626">
        <ele>1503</ele>
        <time>2024-10-21T08:29:56Z</time>
      </trkpt>
      <trkpt lat="44.41655" lon="6.70603">
        <ele>1507</ele>
        <time>2024-10-21T08:29:59Z</time>
      </trkpt>
      <trkpt lat="44.41653" lon="6.70586">
        <ele>1509</ele>
        <time>2024-10-21T08:30:02Z</time>
      </trkpt>
      <trkpt lat="44.41645" lon="6.70557">
        <ele>1508</ele>
        <time>2024-10-21T08:30:07Z</time>
      </trkpt>
      <trkpt lat="44.41644" lon="6.70547">
        <ele>1509</ele>
        <time>2024-10-21T08:30:09Z</time>
      </trkpt>
      <trkpt lat="44.41648" lon="6.70536">
        <ele>1511</ele>
        <time>2024-10-21T08:30:11Z</time>
      </trkpt>
      <trkpt lat="44.41651" lon="6.70518">
        <ele>1514</ele>
        <time>2024-10-21T08:30:14Z</time>
      </trkpt>
      <trkpt lat="44.41654" lon="6.70516">
        <ele>1515</ele>
        <time>2024-10-21T08:30:15Z</time>
      </trkpt>
      <trkpt lat="44.41657" lon="6.70506">
        <ele>1517</ele>
        <time>2024-10-21T08:30:17Z</time>
      </trkpt>
      <trkpt lat="44.41658" lon="6.70463">
        <ele>1517</ele>
        <time>2024-10-21T08:30:24Z</time>
      </trkpt>
      <trkpt lat="44.41657" lon="6.70438">
        <ele>1517</ele>
        <time>2024-10-21T08:30:28Z</time>
      </trkpt>
      <trkpt lat="44.41647" lon="6.70416">
        <ele>1515</ele>
        <time>2024-10-21T08:30:33Z</time>
      </trkpt>
      <trkpt lat="44.41635" lon="6.70385">
        <ele>1516</ele>
        <time>2024-10-21T08:30:38Z</time>
      </trkpt>
      <trkpt lat="44.41633" lon="6.70374">
        <ele>1516</ele>
        <time>2024-10-21T08:30:40Z</time>
      </trkpt>
      <trkpt lat="44.41633" lon="6.70369">
        <ele>1517</ele>
        <time>2024-10-21T08:30:41Z</time>
      </trkpt>
      <trkpt lat="44.41648" lon="6.70326">
        <ele>1523</ele>
        <time>2024-10-21T08:30:49Z</time>
      </trkpt>
      <trkpt lat="44.41658" lon="6.70296">
        <ele>1527</ele>
        <time>2024-10-21T08:30:55Z</time>
      </trkpt>
      <trkpt lat="44.4166" lon="6.70281">
        <ele>1528</ele>
        <time>2024-10-21T08:30:57Z</time>
      </trkpt>
      <trkpt lat="44.41676" lon="6.70258">
        <ele>1534</ele>
        <time>2024-10-21T08:31:03Z</time>
      </trkpt>
      <trkpt lat="44.41682" lon="6.7023">
        <ele>1539</ele>
        <time>2024-10-21T08:31:07Z</time>
      </trkpt>
      <trkpt lat="44.41682" lon="6.70213">
        <ele>1540</ele>
        <time>2024-10-21T08:31:10Z</time>
      </trkpt>
      <trkpt lat="44.41687" lon="6.70202">
        <ele>1543</ele>
        <time>2024-10-21T08:31:12Z</time>
      </trkpt>
      <trkpt lat="44.41702" lon="6.7016">
        <ele>1551</ele>
        <time>2024-10-21T08:31:20Z</time>
      </trkpt>
      <trkpt lat="44.41701" lon="6.70139">
        <ele>1552</ele>
        <time>2024-10-21T08:31:24Z</time>
      </trkpt>
      <trkpt lat="44.41695" lon="6.70108">
        <ele>1552</ele>
        <time>2024-10-21T08:31:29Z</time>
      </trkpt>
      <trkpt lat="44.41693" lon="6.70071">
        <ele>1554</ele>
        <time>2024-10-21T08:31:35Z</time>
      </trkpt>
      <trkpt lat="44.41686" lon="6.7004">
        <ele>1554</ele>
        <time>2024-10-21T08:31:41Z</time>
      </trkpt>
      <trkpt lat="44.41688" lon="6.70006">
        <ele>1556</ele>
        <time>2024-10-21T08:31:46Z</time>
      </trkpt>
      <trkpt lat="44.41681" lon="6.69989">
        <ele>1556</ele>
        <time>2024-10-21T08:31:50Z</time>
      </trkpt>
      <trkpt lat="44.41663" lon="6.69969">
        <ele>1556</ele>
        <time>2024-10-21T08:31:55Z</time>
      </trkpt>
      <trkpt lat="44.41636" lon="6.69947">
        <ele>1556</ele>
        <time>2024-10-21T08:32:02Z</time>
      </trkpt>
      <trkpt lat="44.41623" lon="6.6994">
        <ele>1556</ele>
        <time>2024-10-21T08:32:06Z</time>
      </trkpt>
      <trkpt lat="44.4162" lon="6.69934">
        <ele>1556</ele>
        <time>2024-10-21T08:32:07Z</time>
      </trkpt>
      <trkpt lat="44.41635" lon="6.69919">
        <ele>1560</ele>
        <time>2024-10-21T08:32:11Z</time>
      </trkpt>
      <trkpt lat="44.41665" lon="6.69906">
        <ele>1564</ele>
        <time>2024-10-21T08:32:19Z</time>
      </trkpt>
      <trkpt lat="44.41703" lon="6.69868">
        <ele>1574</ele>
        <time>2024-10-21T08:32:29Z</time>
      </trkpt>
      <trkpt lat="44.4171" lon="6.69851">
        <ele>1577</ele>
        <time>2024-10-21T08:32:33Z</time>
      </trkpt>
      <trkpt lat="44.41714" lon="6.69794">
        <ele>1584</ele>
        <time>2024-10-21T08:32:42Z</time>
      </trkpt>
      <trkpt lat="44.4171" lon="6.69762">
        <ele>1586</ele>
        <time>2024-10-21T08:32:48Z</time>
      </trkpt>
      <trkpt lat="44.41699" lon="6.69739">
        <ele>1587</ele>
        <time>2024-10-21T08:32:52Z</time>
      </trkpt>
      <trkpt lat="44.4168" lon="6.69715">
        <ele>1586</ele>
        <time>2024-10-21T08:32:58Z</time>
      </trkpt>
      <trkpt lat="44.41667" lon="6.69693">
        <ele>1586</ele>
        <time>2024-10-21T08:33:03Z</time>
      </trkpt>
      <trkpt lat="44.41665" lon="6.6968">
        <ele>1587</ele>
        <time>2024-10-21T08:33:05Z</time>
      </trkpt>
      <trkpt lat="44.4167" lon="6.69675">
        <ele>1590</ele>
        <time>2024-10-21T08:33:07Z</time>
      </trkpt>
      <trkpt lat="44.41685" lon="6.69692">
        <ele>1591</ele>
        <time>2024-10-21T08:33:11Z</time>
      </trkpt>
      <trkpt lat="44.41695" lon="6.69698">
        <ele>1593</ele>
        <time>2024-10-21T08:33:14Z</time>
      </trkpt>
      <trkpt lat="44.41737" lon="6.69713">
        <ele>1601</ele>
        <time>2024-10-21T08:33:24Z</time>
      </trkpt>
      <trkpt lat="44.41758" lon="6.69723">
        <ele>1604</ele>
        <time>2024-10-21T08:33:29Z</time>
      </trkpt>
      <trkpt lat="44.41769" lon="6.69731">
        <ele>1606</ele>
        <time>2024-10-21T08:33:32Z</time>
      </trkpt>
      <trkpt lat="44.41776" lon="6.69732">
        <ele>1609</ele>
        <time>2024-10-21T08:33:34Z</time>
      </trkpt>
      <trkpt lat="44.41781" lon="6.69738">
        <ele>1609</ele>
        <time>2024-10-21T08:33:35Z</time>
      </trkpt>
      <trkpt lat="44.41782" lon="6.69757">
        <ele>1607</ele>
        <time>2024-10-21T08:33:38Z</time>
      </trkpt>
      <trkpt lat="44.41793" lon="6.69792">
        <ele>1608</ele>
        <time>2024-10-21T08:33:45Z</time>
      </trkpt>
      <trkpt lat="44.41806" lon="6.69815">
        <ele>1611</ele>
        <time>2024-10-21T08:33:50Z</time>
      </trkpt>
      <trkpt lat="44.41819" lon="6.69832">
        <ele>1614</ele>
        <time>2024-10-21T08:33:54Z</time>
      </trkpt>
      <trkpt lat="44.41838" lon="6.69852">
        <ele>1616</ele>
        <time>2024-10-21T08:33:59Z</time>
      </trkpt>
      <trkpt lat="44.41843" lon="6.69854">
        <ele>1617</ele>
        <time>2024-10-21T08:34:00Z</time>
      </trkpt>
      <trkpt lat="44.41833" lon="6.69822">
        <ele>1620</ele>
        <time>2024-10-21T08:34:06Z</time>
      </trkpt>
      <trkpt lat="44.41822" lon="6.69743">
        <ele>1623</ele>
        <time>2024-10-21T08:34:20Z</time>
      </trkpt>
      <trkpt lat="44.41821" lon="6.69726">
        <ele>1624</ele>
        <time>2024-10-21T08:34:23Z</time>
      </trkpt>
      <trkpt lat="44.41824" lon="6.69708">
        <ele>1627</ele>
        <time>2024-10-21T08:34:26Z</time>
      </trkpt>
      <trkpt lat="44.41823" lon="6.69697">
        <ele>1628</ele>
        <time>2024-10-21T08:34:28Z</time>
      </trkpt>
      <trkpt lat="44.41817" lon="6.69691">
        <ele>1627</ele>
        <time>2024-10-21T08:34:29Z</time>
      </trkpt>
      <trkpt lat="44.41808" lon="6.69689">
        <ele>1625</ele>
        <time>2024-10-21T08:34:31Z</time>
      </trkpt>
      <trkpt lat="44.41799" lon="6.69684">
        <ele>1623</ele>
        <time>2024-10-21T08:34:34Z</time>
      </trkpt>
      <trkpt lat="44.41765" lon="6.69655">
        <ele>1621</ele>
        <time>2024-10-21T08:34:43Z</time>
      </trkpt>
      <trkpt lat="44.41743" lon="6.69629">
        <ele>1622</ele>
        <time>2024-10-21T08:34:50Z</time>
      </trkpt>
      <trkpt lat="44.4171" lon="6.69593">
        <ele>1620</ele>
        <time>2024-10-21T08:34:59Z</time>
      </trkpt>
      <trkpt lat="44.41698" lon="6.69576">
        <ele>1618</ele>
        <time>2024-10-21T08:35:03Z</time>
      </trkpt>
      <trkpt lat="44.41692" lon="6.69561">
        <ele>1616</ele>
        <time>2024-10-21T08:35:06Z</time>
      </trkpt>
      <trkpt lat="44.41691" lon="6.69534">
        <ele>1615</ele>
        <time>2024-10-21T08:35:11Z</time>
      </trkpt>
      <trkpt lat="44.41695" lon="6.69516">
        <ele>1617</ele>
        <time>2024-10-21T08:35:14Z</time>
      </trkpt>
      <trkpt lat="44.41719" lon="6.6937">
        <ele>1609</ele>
        <time>2024-10-21T08:35:39Z</time>
      </trkpt>
      <trkpt lat="44.41728" lon="6.69355">
        <ele>1613</ele>
        <time>2024-10-21T08:35:42Z</time>
      </trkpt>
      <trkpt lat="44.4174" lon="6.6935">
        <ele>1621</ele>
        <time>2024-10-21T08:35:45Z</time>
      </trkpt>
      <trkpt lat="44.41748" lon="6.6934">
        <ele>1624</ele>
        <time>2024-10-21T08:35:48Z</time>
      </trkpt>
      <trkpt lat="44.41758" lon="6.69322">
        <ele>1626</ele>
        <time>2024-10-21T08:35:51Z</time>
      </trkpt>
      <trkpt lat="44.41767" lon="6.69296">
        <ele>1624</ele>
        <time>2024-10-21T08:35:56Z</time>
      </trkpt>
      <trkpt lat="44.41786" lon="6.69259">
        <ele>1626</ele>
        <time>2024-10-21T08:36:04Z</time>
      </trkpt>
      <trkpt lat="44.41795" lon="6.69235">
        <ele>1626</ele>
        <time>2024-10-21T08:36:08Z</time>
      </trkpt>
      <trkpt lat="44.41796" lon="6.69217">
        <ele>1623</ele>
        <time>2024-10-21T08:36:11Z</time>
      </trkpt>
      <trkpt lat="44.4179" lon="6.69176">
        <ele>1611</ele>
        <time>2024-10-21T08:36:18Z</time>
      </trkpt>
      <trkpt lat="44.41794" lon="6.69103">
        <ele>1607</ele>
        <time>2024-10-21T08:36:31Z</time>
      </trkpt>
      <trkpt lat="44.41814" lon="6.69064">
        <ele>1614</ele>
        <time>2024-10-21T08:36:39Z</time>
      </trkpt>
      <trkpt lat="44.41818" lon="6.69052">
        <ele>1616</ele>
        <time>2024-10-21T08:36:41Z</time>
      </trkpt>
      <trkpt lat="44.41819" lon="6.69041">
        <ele>1616</ele>
        <time>2024-10-21T08:36:43Z</time>
      </trkpt>
      <trkpt lat="44.41815" lon="6.69034">
        <ele>1616</ele>
        <time>2024-10-21T08:36:44Z</time>
      </trkpt>
      <trkpt lat="44.41815" lon="6.69034">
        <ele>1616</ele>
        <time>2024-10-21T08:36:44Z</time>
      </trkpt>
      <trkpt lat="44.41811" lon="6.69033">
        <ele>1615</ele>
        <time>2024-10-21T08:36:45Z</time>
      </trkpt>
      <trkpt lat="44.418" lon="6.69036">
        <ele>1612</ele>
        <time>2024-10-21T08:36:48Z</time>
      </trkpt>
      <trkpt lat="44.4179" lon="6.69036">
        <ele>1610</ele>
        <time>2024-10-21T08:36:50Z</time>
      </trkpt>
      <trkpt lat="44.41758" lon="6.69028">
        <ele>1605</ele>
        <time>2024-10-21T08:36:58Z</time>
      </trkpt>
      <trkpt lat="44.41744" lon="6.69029">
        <ele>1602</ele>
        <time>2024-10-21T08:37:01Z</time>
      </trkpt>
      <trkpt lat="44.41743" lon="6.69027">
        <ele>1602</ele>
        <time>2024-10-21T08:37:01Z</time>
      </trkpt>
      <trkpt lat="44.41739" lon="6.69023">
        <ele>1603</ele>
        <time>2024-10-21T08:37:02Z</time>
      </trkpt>
      <trkpt lat="44.41727" lon="6.69001">
        <ele>1607</ele>
        <time>2024-10-21T08:37:07Z</time>
      </trkpt>
      <trkpt lat="44.41717" lon="6.68992">
        <ele>1608</ele>
        <time>2024-10-21T08:37:10Z</time>
      </trkpt>
      <trkpt lat="44.41683" lon="6.68973">
        <ele>1607</ele>
        <time>2024-10-21T08:37:18Z</time>
      </trkpt>
      <trkpt lat="44.41659" lon="6.68974">
        <ele>1602</ele>
        <time>2024-10-21T08:37:24Z</time>
      </trkpt>
      <trkpt lat="44.4165" lon="6.6897">
        <ele>1601</ele>
        <time>2024-10-21T08:37:26Z</time>
      </trkpt>
      <trkpt lat="44.41643" lon="6.68963">
        <ele>1601</ele>
        <time>2024-10-21T08:37:28Z</time>
      </trkpt>
      <trkpt lat="44.41634" lon="6.68943">
        <ele>1602</ele>
        <time>2024-10-21T08:37:32Z</time>
      </trkpt>
      <trkpt lat="44.41628" lon="6.68922">
        <ele>1604</ele>
        <time>2024-10-21T08:37:36Z</time>
      </trkpt>
      <trkpt lat="44.4163" lon="6.68897">
        <ele>1609</ele>
        <time>2024-10-21T08:37:40Z</time>
      </trkpt>
      <trkpt lat="44.41628" lon="6.68888">
        <ele>1611</ele>
        <time>2024-10-21T08:37:42Z</time>
      </trkpt>
      <trkpt lat="44.41622" lon="6.68883">
        <ele>1610</ele>
        <time>2024-10-21T08:37:43Z</time>
      </trkpt>
      <trkpt lat="44.41602" lon="6.68878">
        <ele>1605</ele>
        <time>2024-10-21T08:37:48Z</time>
      </trkpt>
      <trkpt lat="44.41575" lon="6.68856">
        <ele>1603</ele>
        <time>2024-10-21T08:37:55Z</time>
      </trkpt>
      <trkpt lat="44.41566" lon="6.68836">
        <ele>1605</ele>
        <time>2024-10-21T08:37:59Z</time>
      </trkpt>
      <trkpt lat="44.41557" lon="6.68803">
        <ele>1609</ele>
        <time>2024-10-21T08:38:05Z</time>
      </trkpt>
      <trkpt lat="44.41551" lon="6.68786">
        <ele>1611</ele>
        <time>2024-10-21T08:38:08Z</time>
      </trkpt>
      <trkpt lat="44.41531" lon="6.68769">
        <ele>1609</ele>
        <time>2024-10-21T08:38:14Z</time>
      </trkpt>
      <trkpt lat="44.41494" lon="6.68752">
        <ele>1605</ele>
        <time>2024-10-21T08:38:23Z</time>
      </trkpt>
      <trkpt lat="44.41468" lon="6.68755">
        <ele>1598</ele>
        <time>2024-10-21T08:38:29Z</time>
      </trkpt>
      <trkpt lat="44.41447" lon="6.68748">
        <ele>1595</ele>
        <time>2024-10-21T08:38:34Z</time>
      </trkpt>
      <trkpt lat="44.4143" lon="6.68737">
        <ele>1595</ele>
        <time>2024-10-21T08:38:38Z</time>
      </trkpt>
      <trkpt lat="44.41409" lon="6.6873">
        <ele>1594</ele>
        <time>2024-10-21T08:38:43Z</time>
      </trkpt>
      <trkpt lat="44.41318" lon="6.68751">
        <ele>1587</ele>
        <time>2024-10-21T08:39:05Z</time>
      </trkpt>
      <trkpt lat="44.41303" lon="6.68738">
        <ele>1591</ele>
        <time>2024-10-21T08:39:09Z</time>
      </trkpt>
      <trkpt lat="44.41281" lon="6.68734">
        <ele>1593</ele>
        <time>2024-10-21T08:39:14Z</time>
      </trkpt>
      <trkpt lat="44.41234" lon="6.68732">
        <ele>1595</ele>
        <time>2024-10-21T08:39:25Z</time>
      </trkpt>
      <trkpt lat="44.41197" lon="6.68727">
        <ele>1601</ele>
        <time>2024-10-21T08:39:34Z</time>
      </trkpt>
      <trkpt lat="44.41159" lon="6.68734">
        <ele>1600</ele>
        <time>2024-10-21T08:39:43Z</time>
      </trkpt>
      <trkpt lat="44.41141" lon="6.68731">
        <ele>1597</ele>
        <time>2024-10-21T08:39:47Z</time>
      </trkpt>
      <trkpt lat="44.41115" lon="6.68715">
        <ele>1595</ele>
        <time>2024-10-21T08:39:54Z</time>
      </trkpt>
      <trkpt lat="44.41092" lon="6.68681">
        <ele>1598</ele>
        <time>2024-10-21T08:40:02Z</time>
      </trkpt>
      <trkpt lat="44.41066" lon="6.68639">
        <ele>1599</ele>
        <time>2024-10-21T08:40:11Z</time>
      </trkpt>
      <trkpt lat="44.41053" lon="6.68605">
        <ele>1602</ele>
        <time>2024-10-21T08:40:17Z</time>
      </trkpt>
      <trkpt lat="44.41018" lon="6.68529">
        <ele>1604</ele>
        <time>2024-10-21T08:40:32Z</time>
      </trkpt>
      <trkpt lat="44.40982" lon="6.685">
        <ele>1593</ele>
        <time>2024-10-21T08:40:42Z</time>
      </trkpt>
      <trkpt lat="44.40952" lon="6.68461">
        <ele>1589</ele>
        <time>2024-10-21T08:40:52Z</time>
      </trkpt>
      <trkpt lat="44.40917" lon="6.68432">
        <ele>1577</ele>
        <time>2024-10-21T08:41:01Z</time>
      </trkpt>
      <trkpt lat="44.40903" lon="6.68412">
        <ele>1575</ele>
        <time>2024-10-21T08:41:06Z</time>
      </trkpt>
      <trkpt lat="44.40884" lon="6.68384">
        <ele>1568</ele>
        <time>2024-10-21T08:41:12Z</time>
      </trkpt>
      <trkpt lat="44.40876" lon="6.68348">
        <ele>1566</ele>
        <time>2024-10-21T08:41:19Z</time>
      </trkpt>
      <trkpt lat="44.40875" lon="6.68319">
        <ele>1566</ele>
        <time>2024-10-21T08:41:23Z</time>
      </trkpt>
      <trkpt lat="44.40891" lon="6.68291">
        <ele>1571</ele>
        <time>2024-10-21T08:41:29Z</time>
      </trkpt>
      <trkpt lat="44.40899" lon="6.68262">
        <ele>1572</ele>
        <time>2024-10-21T08:41:35Z</time>
      </trkpt>
      <trkpt lat="44.40907" lon="6.68217">
        <ele>1569</ele>
        <time>2024-10-21T08:41:42Z</time>
      </trkpt>
      <trkpt lat="44.4091" lon="6.68185">
        <ele>1566</ele>
        <time>2024-10-21T08:41:48Z</time>
      </trkpt>
      <trkpt lat="44.40909" lon="6.68119">
        <ele>1566</ele>
        <time>2024-10-21T08:41:59Z</time>
      </trkpt>
      <trkpt lat="44.40865" lon="6.68064">
        <ele>1555</ele>
        <time>2024-10-21T08:42:12Z</time>
      </trkpt>
      <trkpt lat="44.40834" lon="6.68034">
        <ele>1548</ele>
        <time>2024-10-21T08:42:21Z</time>
      </trkpt>
      <trkpt lat="44.40804" lon="6.67995">
        <ele>1546</ele>
        <time>2024-10-21T08:42:31Z</time>
      </trkpt>
      <trkpt lat="44.4078" lon="6.67977">
        <ele>1540</ele>
        <time>2024-10-21T08:42:37Z</time>
      </trkpt>
      <trkpt lat="44.40754" lon="6.67928">
        <ele>1533</ele>
        <time>2024-10-21T08:42:47Z</time>
      </trkpt>
      <trkpt lat="44.40745" lon="6.67896">
        <ele>1528</ele>
        <time>2024-10-21T08:42:53Z</time>
      </trkpt>
      <trkpt lat="44.4076" lon="6.67848">
        <ele>1528</ele>
        <time>2024-10-21T08:43:02Z</time>
      </trkpt>
      <trkpt lat="44.40763" lon="6.67808">
        <ele>1526</ele>
        <time>2024-10-21T08:43:09Z</time>
      </trkpt>
      <trkpt lat="44.40784" lon="6.67784">
        <ele>1533</ele>
        <time>2024-10-21T08:43:15Z</time>
      </trkpt>
      <trkpt lat="44.40794" lon="6.67766">
        <ele>1536</ele>
        <time>2024-10-21T08:43:19Z</time>
      </trkpt>
      <trkpt lat="44.40792" lon="6.67759">
        <ele>1535</ele>
        <time>2024-10-21T08:43:20Z</time>
      </trkpt>
      <trkpt lat="44.40787" lon="6.6774">
        <ele>1531</ele>
        <time>2024-10-21T08:43:23Z</time>
      </trkpt>
      <trkpt lat="44.40791" lon="6.67713">
        <ele>1530</ele>
        <time>2024-10-21T08:43:28Z</time>
      </trkpt>
      <trkpt lat="44.40785" lon="6.67708">
        <ele>1527</ele>
        <time>2024-10-21T08:43:30Z</time>
      </trkpt>
      <trkpt lat="44.40791" lon="6.67682">
        <ele>1528</ele>
        <time>2024-10-21T08:43:34Z</time>
      </trkpt>
      <trkpt lat="44.40838" lon="6.67654">
        <ele>1546</ele>
        <time>2024-10-21T08:43:46Z</time>
      </trkpt>
      <trkpt lat="44.40825" lon="6.67557">
        <ele>1539</ele>
        <time>2024-10-21T08:44:03Z</time>
      </trkpt>
      <trkpt lat="44.40832" lon="6.6752">
        <ele>1543</ele>
        <time>2024-10-21T08:44:09Z</time>
      </trkpt>
      <trkpt lat="44.40844" lon="6.67488">
        <ele>1551</ele>
        <time>2024-10-21T08:44:15Z</time>
      </trkpt>
      <trkpt lat="44.40849" lon="6.67461">
        <ele>1556</ele>
        <time>2024-10-21T08:44:20Z</time>
      </trkpt>
      <trkpt lat="44.4085" lon="6.67435">
        <ele>1560</ele>
        <time>2024-10-21T08:44:24Z</time>
      </trkpt>
      <trkpt lat="44.40844" lon="6.67406">
        <ele>1560</ele>
        <time>2024-10-21T08:44:29Z</time>
      </trkpt>
      <trkpt lat="44.4082" lon="6.67375">
        <ele>1555</ele>
        <time>2024-10-21T08:44:37Z</time>
      </trkpt>
      <trkpt lat="44.40811" lon="6.67347">
        <ele>1556</ele>
        <time>2024-10-21T08:44:42Z</time>
      </trkpt>
      <trkpt lat="44.40826" lon="6.67309">
        <ele>1565</ele>
        <time>2024-10-21T08:44:49Z</time>
      </trkpt>
      <trkpt lat="44.40826" lon="6.67279">
        <ele>1568</ele>
        <time>2024-10-21T08:44:54Z</time>
      </trkpt>
      <trkpt lat="44.40805" lon="6.67232">
        <ele>1563</ele>
        <time>2024-10-21T08:45:03Z</time>
      </trkpt>
      <trkpt lat="44.40805" lon="6.67185">
        <ele>1564</ele>
        <time>2024-10-21T08:45:11Z</time>
      </trkpt>
      <trkpt lat="44.40814" lon="6.67153">
        <ele>1567</ele>
        <time>2024-10-21T08:45:17Z</time>
      </trkpt>
      <trkpt lat="44.40824" lon="6.67152">
        <ele>1571</ele>
        <time>2024-10-21T08:45:19Z</time>
      </trkpt>
      <trkpt lat="44.40825" lon="6.67185">
        <ele>1572</ele>
        <time>2024-10-21T08:45:25Z</time>
      </trkpt>
      <trkpt lat="44.40854" lon="6.67224">
        <ele>1582</ele>
        <time>2024-10-21T08:45:34Z</time>
      </trkpt>
      <trkpt lat="44.40864" lon="6.67224">
        <ele>1585</ele>
        <time>2024-10-21T08:45:36Z</time>
      </trkpt>
      <trkpt lat="44.40863" lon="6.67212">
        <ele>1585</ele>
        <time>2024-10-21T08:45:38Z</time>
      </trkpt>
      <trkpt lat="44.40854" lon="6.67196">
        <ele>1583</ele>
        <time>2024-10-21T08:45:42Z</time>
      </trkpt>
      <trkpt lat="44.40857" lon="6.67146">
        <ele>1582</ele>
        <time>2024-10-21T08:45:50Z</time>
      </trkpt>
      <trkpt lat="44.40899" lon="6.67126">
        <ele>1596</ele>
        <time>2024-10-21T08:46:01Z</time>
      </trkpt>
      <trkpt lat="44.40908" lon="6.67117">
        <ele>1598</ele>
        <time>2024-10-21T08:46:03Z</time>
      </trkpt>
      <trkpt lat="44.40918" lon="6.67084">
        <ele>1599</ele>
        <time>2024-10-21T08:46:09Z</time>
      </trkpt>
      <trkpt lat="44.40936" lon="6.67064">
        <ele>1605</ele>
        <time>2024-10-21T08:46:14Z</time>
      </trkpt>
      <trkpt lat="44.40943" lon="6.67064">
        <ele>1608</ele>
        <time>2024-10-21T08:46:16Z</time>
      </trkpt>
      <trkpt lat="44.4093" lon="6.67119">
        <ele>1607</ele>
        <time>2024-10-21T08:46:26Z</time>
      </trkpt>
      <trkpt lat="44.40915" lon="6.67157">
        <ele>1604</ele>
        <time>2024-10-21T08:46:33Z</time>
      </trkpt>
      <trkpt lat="44.40921" lon="6.67169">
        <ele>1607</ele>
        <time>2024-10-21T08:46:35Z</time>
      </trkpt>
      <trkpt lat="44.40946" lon="6.67186">
        <ele>1615</ele>
        <time>2024-10-21T08:46:42Z</time>
      </trkpt>
      <trkpt lat="44.40975" lon="6.67257">
        <ele>1621</ele>
        <time>2024-10-21T08:46:56Z</time>
      </trkpt>
      <trkpt lat="44.40997" lon="6.67282">
        <ele>1627</ele>
        <time>2024-10-21T08:47:02Z</time>
      </trkpt>
      <trkpt lat="44.41009" lon="6.67287">
        <ele>1630</ele>
        <time>2024-10-21T08:47:05Z</time>
      </trkpt>
      <trkpt lat="44.41022" lon="6.67278">
        <ele>1634</ele>
        <time>2024-10-21T08:47:08Z</time>
      </trkpt>
      <trkpt lat="44.4104" lon="6.67275">
        <ele>1639</ele>
        <time>2024-10-21T08:47:13Z</time>
      </trkpt>
      <trkpt lat="44.41055" lon="6.67295">
        <ele>1643</ele>
        <time>2024-10-21T08:47:18Z</time>
      </trkpt>
      <trkpt lat="44.4106" lon="6.6733">
        <ele>1644</ele>
        <time>2024-10-21T08:47:24Z</time>
      </trkpt>
      <trkpt lat="44.41056" lon="6.67403">
        <ele>1645</ele>
        <time>2024-10-21T08:47:36Z</time>
      </trkpt>
      <trkpt lat="44.4105" lon="6.67487">
        <ele>1646</ele>
        <time>2024-10-21T08:47:50Z</time>
      </trkpt>
      <trkpt lat="44.41055" lon="6.67554">
        <ele>1650</ele>
        <time>2024-10-21T08:48:01Z</time>
      </trkpt>
      <trkpt lat="44.41074" lon="6.6763">
        <ele>1657</ele>
        <time>2024-10-21T08:48:14Z</time>
      </trkpt>
      <trkpt lat="44.41076" lon="6.6763">
        <ele>1657</ele>
        <time>2024-10-21T08:48:15Z</time>
      </trkpt>
      <trkpt lat="44.41084" lon="6.6763">
        <ele>1660</ele>
        <time>2024-10-21T08:48:17Z</time>
      </trkpt>
      <trkpt lat="44.41088" lon="6.67575">
        <ele>1664</ele>
        <time>2024-10-21T08:48:26Z</time>
      </trkpt>
      <trkpt lat="44.41144" lon="6.67498">
        <ele>1670</ele>
        <time>2024-10-21T08:48:44Z</time>
      </trkpt>
      <trkpt lat="44.41248" lon="6.67447">
        <ele>1685</ele>
        <time>2024-10-21T08:49:10Z</time>
      </trkpt>
      <trkpt lat="44.41271" lon="6.67426">
        <ele>1689</ele>
        <time>2024-10-21T08:49:17Z</time>
      </trkpt>
      <trkpt lat="44.41273" lon="6.67413">
        <ele>1689</ele>
        <time>2024-10-21T08:49:19Z</time>
      </trkpt>
      <trkpt lat="44.41282" lon="6.67367">
        <ele>1692</ele>
        <time>2024-10-21T08:49:27Z</time>
      </trkpt>
      <trkpt lat="44.41288" lon="6.67361">
        <ele>1693</ele>
        <time>2024-10-21T08:49:28Z</time>
      </trkpt>
      <trkpt lat="44.41292" lon="6.6736">
        <ele>1694</ele>
        <time>2024-10-21T08:49:29Z</time>
      </trkpt>
      <trkpt lat="44.41297" lon="6.67366">
        <ele>1695</ele>
        <time>2024-10-21T08:49:31Z</time>
      </trkpt>
      <trkpt lat="44.41299" lon="6.67387">
        <ele>1695</ele>
        <time>2024-10-21T08:49:34Z</time>
      </trkpt>
      <trkpt lat="44.41307" lon="6.67411">
        <ele>1696</ele>
        <time>2024-10-21T08:49:39Z</time>
      </trkpt>
      <trkpt lat="44.4133" lon="6.67432">
        <ele>1701</ele>
        <time>2024-10-21T08:49:45Z</time>
      </trkpt>
      <trkpt lat="44.41344" lon="6.67469">
        <ele>1705</ele>
        <time>2024-10-21T08:49:52Z</time>
      </trkpt>
      <trkpt lat="44.4135" lon="6.67521">
        <ele>1708</ele>
        <time>2024-10-21T08:50:01Z</time>
      </trkpt>
      <trkpt lat="44.41345" lon="6.67554">
        <ele>1711</ele>
        <time>2024-10-21T08:50:07Z</time>
      </trkpt>
      <trkpt lat="44.41335" lon="6.67584">
        <ele>1711</ele>
        <time>2024-10-21T08:50:12Z</time>
      </trkpt>
      <trkpt lat="44.41336" lon="6.67598">
        <ele>1711</ele>
        <time>2024-10-21T08:50:15Z</time>
      </trkpt>
      <trkpt lat="44.41343" lon="6.6761">
        <ele>1713</ele>
        <time>2024-10-21T08:50:17Z</time>
      </trkpt>
      <trkpt lat="44.41351" lon="6.6761">
        <ele>1715</ele>
        <time>2024-10-21T08:50:19Z</time>
      </trkpt>
      <trkpt lat="44.41361" lon="6.676">
        <ele>1717</ele>
        <time>2024-10-21T08:50:22Z</time>
      </trkpt>
      <trkpt lat="44.41386" lon="6.67587">
        <ele>1724</ele>
        <time>2024-10-21T08:50:28Z</time>
      </trkpt>
      <trkpt lat="44.41418" lon="6.67566">
        <ele>1731</ele>
        <time>2024-10-21T08:50:36Z</time>
      </trkpt>
      <trkpt lat="44.41455" lon="6.67502">
        <ele>1742</ele>
        <time>2024-10-21T08:50:50Z</time>
      </trkpt>
      <trkpt lat="44.41457" lon="6.67465">
        <ele>1743</ele>
        <time>2024-10-21T08:50:56Z</time>
      </trkpt>
      <trkpt lat="44.41472" lon="6.6743">
        <ele>1748</ele>
        <time>2024-10-21T08:51:03Z</time>
      </trkpt>
      <trkpt lat="44.41471" lon="6.67414">
        <ele>1748</ele>
        <time>2024-10-21T08:51:06Z</time>
      </trkpt>
      <trkpt lat="44.41458" lon="6.6739">
        <ele>1746</ele>
        <time>2024-10-21T08:51:11Z</time>
      </trkpt>
      <trkpt lat="44.41462" lon="6.6738">
        <ele>1748</ele>
        <time>2024-10-21T08:51:13Z</time>
      </trkpt>
      <trkpt lat="44.4147" lon="6.67387">
        <ele>1750</ele>
        <time>2024-10-21T08:51:15Z</time>
      </trkpt>
      <trkpt lat="44.41498" lon="6.67426">
        <ele>1758</ele>
        <time>2024-10-21T08:51:24Z</time>
      </trkpt>
      <trkpt lat="44.41515" lon="6.67492">
        <ele>1767</ele>
        <time>2024-10-21T08:51:36Z</time>
      </trkpt>
      <trkpt lat="44.415" lon="6.67554">
        <ele>1763</ele>
        <time>2024-10-21T08:51:47Z</time>
      </trkpt>
      <trkpt lat="44.41499" lon="6.67569">
        <ele>1764</ele>
        <time>2024-10-21T08:51:49Z</time>
      </trkpt>
      <trkpt lat="44.41502" lon="6.67586">
        <ele>1766</ele>
        <time>2024-10-21T08:51:52Z</time>
      </trkpt>
      <trkpt lat="44.41516" lon="6.67624">
        <ele>1773</ele>
        <time>2024-10-21T08:51:59Z</time>
      </trkpt>
      <trkpt lat="44.4151" lon="6.67653">
        <ele>1771</ele>
        <time>2024-10-21T08:52:04Z</time>
      </trkpt>
      <trkpt lat="44.41497" lon="6.6769">
        <ele>1768</ele>
        <time>2024-10-21T08:52:11Z</time>
      </trkpt>
      <trkpt lat="44.41498" lon="6.67727">
        <ele>1771</ele>
        <time>2024-10-21T08:52:17Z</time>
      </trkpt>
      <trkpt lat="44.41472" lon="6.67809">
        <ele>1777</ele>
        <time>2024-10-21T08:52:32Z</time>
      </trkpt>
      <trkpt lat="44.41452" lon="6.67838">
        <ele>1776</ele>
        <time>2024-10-21T08:52:39Z</time>
      </trkpt>
      <trkpt lat="44.41418" lon="6.67834">
        <ele>1765</ele>
        <time>2024-10-21T08:52:47Z</time>
      </trkpt>
      <trkpt lat="44.41411" lon="6.67837">
        <ele>1762</ele>
        <time>2024-10-21T08:52:49Z</time>
      </trkpt>
      <trkpt lat="44.414" lon="6.67843">
        <ele>1758</ele>
        <time>2024-10-21T08:52:52Z</time>
      </trkpt>
      <trkpt lat="44.41383" lon="6.67876">
        <ele>1758</ele>
        <time>2024-10-21T08:52:58Z</time>
      </trkpt>
      <trkpt lat="44.41374" lon="6.67914">
        <ele>1762</ele>
        <time>2024-10-21T08:53:05Z</time>
      </trkpt>
      <trkpt lat="44.41374" lon="6.67923">
        <ele>1763</ele>
        <time>2024-10-21T08:53:06Z</time>
      </trkpt>
      <trkpt lat="44.41377" lon="6.67933">
        <ele>1765</ele>
        <time>2024-10-21T08:53:08Z</time>
      </trkpt>
      <trkpt lat="44.41389" lon="6.67948">
        <ele>1771</ele>
        <time>2024-10-21T08:53:12Z</time>
      </trkpt>
      <trkpt lat="44.41397" lon="6.67968">
        <ele>1775</ele>
        <time>2024-10-21T08:53:16Z</time>
      </trkpt>
      <trkpt lat="44.41409" lon="6.67984">
        <ele>1780</ele>
        <time>2024-10-21T08:53:20Z</time>
      </trkpt>
      <trkpt lat="44.41412" lon="6.68">
        <ele>1781</ele>
        <time>2024-10-21T08:53:22Z</time>
      </trkpt>
      <trkpt lat="44.41401" lon="6.68015">
        <ele>1779</ele>
        <time>2024-10-21T08:53:26Z</time>
      </trkpt>
      <trkpt lat="44.41384" lon="6.6803">
        <ele>1775</ele>
        <time>2024-10-21T08:53:31Z</time>
      </trkpt>
      <trkpt lat="44.41352" lon="6.68042">
        <ele>1767</ele>
        <time>2024-10-21T08:53:39Z</time>
      </trkpt>
      <trkpt lat="44.41335" lon="6.6806">
        <ele>1765</ele>
        <time>2024-10-21T08:53:43Z</time>
      </trkpt>
      <trkpt lat="44.41326" lon="6.68092">
        <ele>1767</ele>
        <time>2024-10-21T08:53:49Z</time>
      </trkpt>
      <trkpt lat="44.41334" lon="6.68128">
        <ele>1766</ele>
        <time>2024-10-21T08:53:56Z</time>
      </trkpt>
      <trkpt lat="44.41357" lon="6.68159">
        <ele>1769</ele>
        <time>2024-10-21T08:54:03Z</time>
      </trkpt>
      <trkpt lat="44.41399" lon="6.68206">
        <ele>1768</ele>
        <time>2024-10-21T08:54:16Z</time>
      </trkpt>
      <trkpt lat="44.41451" lon="6.68234">
        <ele>1772</ele>
        <time>2024-10-21T08:54:29Z</time>
      </trkpt>
      <trkpt lat="44.41478" lon="6.68253">
        <ele>1773</ele>
        <time>2024-10-21T08:54:36Z</time>
      </trkpt>
      <trkpt lat="44.41512" lon="6.68271">
        <ele>1773</ele>
        <time>2024-10-21T08:54:44Z</time>
      </trkpt>
      <trkpt lat="44.41539" lon="6.68257">
        <ele>1781</ele>
        <time>2024-10-21T08:54:51Z</time>
      </trkpt>
      <trkpt lat="44.41573" lon="6.68275">
        <ele>1780</ele>
        <time>2024-10-21T08:54:59Z</time>
      </trkpt>
      <trkpt lat="44.41595" lon="6.68287">
        <ele>1777</ele>
        <time>2024-10-21T08:55:05Z</time>
      </trkpt>
      <trkpt lat="44.41609" lon="6.68274">
        <ele>1782</ele>
        <time>2024-10-21T08:55:09Z</time>
      </trkpt>
      <trkpt lat="44.41682" lon="6.68267">
        <ele>1786</ele>
        <time>2024-10-21T08:55:26Z</time>
      </trkpt>
      <trkpt lat="44.41759" lon="6.6825">
        <ele>1797</ele>
        <time>2024-10-21T08:55:44Z</time>
      </trkpt>
      <trkpt lat="44.41791" lon="6.68268">
        <ele>1795</ele>
        <time>2024-10-21T08:55:52Z</time>
      </trkpt>
      <trkpt lat="44.41824" lon="6.6827">
        <ele>1801</ele>
        <time>2024-10-21T08:56:00Z</time>
      </trkpt>
      <trkpt lat="44.41867" lon="6.68287">
        <ele>1805</ele>
        <time>2024-10-21T08:56:10Z</time>
      </trkpt>
      <trkpt lat="44.41928" lon="6.68337">
        <ele>1798</ele>
        <time>2024-10-21T08:56:27Z</time>
      </trkpt>
      <trkpt lat="44.41991" lon="6.68319">
        <ele>1815</ele>
        <time>2024-10-21T08:56:42Z</time>
      </trkpt>
      <trkpt lat="44.42097" lon="6.68393">
        <ele>1819</ele>
        <time>2024-10-21T08:57:09Z</time>
      </trkpt>
      <trkpt lat="44.42115" lon="6.6835">
        <ele>1837</ele>
        <time>2024-10-21T08:57:18Z</time>
      </trkpt>
      <trkpt lat="44.42139" lon="6.68328">
        <ele>1852</ele>
        <time>2024-10-21T08:57:24Z</time>
      </trkpt>
      <trkpt lat="44.42164" lon="6.68324">
        <ele>1860</ele>
        <time>2024-10-21T08:57:30Z</time>
      </trkpt>
      <trkpt lat="44.42166" lon="6.68332">
        <ele>1858</ele>
        <time>2024-10-21T08:57:32Z</time>
      </trkpt>
      <trkpt lat="44.42166" lon="6.68332">
        <ele>1858</ele>
        <time>2024-10-21T08:57:32Z</time>
      </trkpt>
      <trkpt lat="44.4217" lon="6.68343">
        <ele>1857</ele>
        <time>2024-10-21T08:57:34Z</time>
      </trkpt>
      <trkpt lat="44.42161" lon="6.68372">
        <ele>1845</ele>
        <time>2024-10-21T08:57:39Z</time>
      </trkpt>
      <trkpt lat="44.42162" lon="6.68405">
        <ele>1836</ele>
        <time>2024-10-21T08:57:45Z</time>
      </trkpt>
      <trkpt lat="44.42166" lon="6.6848">
        <ele>1817</ele>
        <time>2024-10-21T08:57:57Z</time>
      </trkpt>
      <trkpt lat="44.42181" lon="6.6853">
        <ele>1818</ele>
        <time>2024-10-21T08:58:06Z</time>
      </trkpt>
      <trkpt lat="44.42208" lon="6.68577">
        <ele>1823</ele>
        <time>2024-10-21T08:58:16Z</time>
      </trkpt>
      <trkpt lat="44.42281" lon="6.6858">
        <ele>1849</ele>
        <time>2024-10-21T08:58:33Z</time>
      </trkpt>
      <trkpt lat="44.423" lon="6.68586">
        <ele>1852</ele>
        <time>2024-10-21T08:58:38Z</time>
      </trkpt>
      <trkpt lat="44.42311" lon="6.68587">
        <ele>1855</ele>
        <time>2024-10-21T08:58:40Z</time>
      </trkpt>
      <trkpt lat="44.42335" lon="6.68578">
        <ele>1865</ele>
        <time>2024-10-21T08:58:46Z</time>
      </trkpt>
      <trkpt lat="44.42342" lon="6.68579">
        <ele>1868</ele>
        <time>2024-10-21T08:58:48Z</time>
      </trkpt>
      <trkpt lat="44.42353" lon="6.6859">
        <ele>1870</ele>
        <time>2024-10-21T08:58:51Z</time>
      </trkpt>
      <trkpt lat="44.42353" lon="6.6859">
        <ele>1870</ele>
        <time>2024-10-21T08:58:51Z</time>
      </trkpt>
      <trkpt lat="44.42352" lon="6.68597">
        <ele>1870</ele>
        <time>2024-10-21T08:58:52Z</time>
      </trkpt>
      <trkpt lat="44.42341" lon="6.68624">
        <ele>1863</ele>
        <time>2024-10-21T08:58:57Z</time>
      </trkpt>
      <trkpt lat="44.42339" lon="6.68637">
        <ele>1861</ele>
        <time>2024-10-21T08:59:00Z</time>
      </trkpt>
      <trkpt lat="44.42318" lon="6.68689">
        <ele>1853</ele>
        <time>2024-10-21T08:59:10Z</time>
      </trkpt>
      <trkpt lat="44.42326" lon="6.68711">
        <ele>1862</ele>
        <time>2024-10-21T08:59:14Z</time>
      </trkpt>
      <trkpt lat="44.42322" lon="6.68725">
        <ele>1863</ele>
        <time>2024-10-21T08:59:16Z</time>
      </trkpt>
      <trkpt lat="44.42316" lon="6.68737">
        <ele>1863</ele>
        <time>2024-10-21T08:59:19Z</time>
      </trkpt>
      <trkpt lat="44.42305" lon="6.68773">
        <ele>1868</ele>
        <time>2024-10-21T08:59:25Z</time>
      </trkpt>
      <trkpt lat="44.42296" lon="6.68782">
        <ele>1866</ele>
        <time>2024-10-21T08:59:28Z</time>
      </trkpt>
      <trkpt lat="44.42281" lon="6.6879">
        <ele>1860</ele>
        <time>2024-10-21T08:59:31Z</time>
      </trkpt>
      <trkpt lat="44.42269" lon="6.68804">
        <ele>1858</ele>
        <time>2024-10-21T08:59:35Z</time>
      </trkpt>
      <trkpt lat="44.42258" lon="6.68824">
        <ele>1857</ele>
        <time>2024-10-21T08:59:39Z</time>
      </trkpt>
      <trkpt lat="44.42253" lon="6.6885">
        <ele>1859</ele>
        <time>2024-10-21T08:59:44Z</time>
      </trkpt>
      <trkpt lat="44.42255" lon="6.68891">
        <ele>1865</ele>
        <time>2024-10-21T08:59:51Z</time>
      </trkpt>
      <trkpt lat="44.42245" lon="6.68933">
        <ele>1862</ele>
        <time>2024-10-21T08:59:58Z</time>
      </trkpt>
      <trkpt lat="44.42244" lon="6.68937">
        <ele>1862</ele>
        <time>2024-10-21T08:59:59Z</time>
      </trkpt>
      <trkpt lat="44.42259" lon="6.6897">
        <ele>1876</ele>
        <time>2024-10-21T09:00:05Z</time>
      </trkpt>
      <trkpt lat="44.42265" lon="6.68992">
        <ele>1883</ele>
        <time>2024-10-21T09:00:09Z</time>
      </trkpt>
      <trkpt lat="44.4227" lon="6.69021">
        <ele>1891</ele>
        <time>2024-10-21T09:00:14Z</time>
      </trkpt>
      <trkpt lat="44.42253" lon="6.69067">
        <ele>1884</ele>
        <time>2024-10-21T09:00:23Z</time>
      </trkpt>
      <trkpt lat="44.42259" lon="6.69093">
        <ele>1892</ele>
        <time>2024-10-21T09:00:27Z</time>
      </trkpt>
      <trkpt lat="44.42236" lon="6.69181">
        <ele>1889</ele>
        <time>2024-10-21T09:00:43Z</time>
      </trkpt>
      <trkpt lat="44.42229" lon="6.69287">
        <ele>1894</ele>
        <time>2024-10-21T09:01:01Z</time>
      </trkpt>
      <trkpt lat="44.42246" lon="6.69388">
        <ele>1905</ele>
        <time>2024-10-21T09:01:18Z</time>
      </trkpt>
      <trkpt lat="44.42286" lon="6.69477">
        <ele>1915</ele>
        <time>2024-10-21T09:01:36Z</time>
      </trkpt>
      <trkpt lat="44.42315" lon="6.69571">
        <ele>1908</ele>
        <time>2024-10-21T09:01:53Z</time>
      </trkpt>
      <trkpt lat="44.42367" lon="6.69634">
        <ele>1916</ele>
        <time>2024-10-21T09:02:09Z</time>
      </trkpt>
      <trkpt lat="44.42386" lon="6.6966">
        <ele>1918</ele>
        <time>2024-10-21T09:02:15Z</time>
      </trkpt>
      <trkpt lat="44.42399" lon="6.69675">
        <ele>1919</ele>
        <time>2024-10-21T09:02:19Z</time>
      </trkpt>
      <trkpt lat="44.42446" lon="6.69685">
        <ele>1922</ele>
        <time>2024-10-21T09:02:30Z</time>
      </trkpt>
      <trkpt lat="44.42463" lon="6.69675">
        <ele>1925</ele>
        <time>2024-10-21T09:02:34Z</time>
      </trkpt>
      <trkpt lat="44.42482" lon="6.69658">
        <ele>1930</ele>
        <time>2024-10-21T09:02:40Z</time>
      </trkpt>
      <trkpt lat="44.42508" lon="6.6963">
        <ele>1939</ele>
        <time>2024-10-21T09:02:47Z</time>
      </trkpt>
      <trkpt lat="44.42526" lon="6.69616">
        <ele>1942</ele>
        <time>2024-10-21T09:02:52Z</time>
      </trkpt>
      <trkpt lat="44.42616" lon="6.69582">
        <ele>1943</ele>
        <time>2024-10-21T09:03:14Z</time>
      </trkpt>
      <trkpt lat="44.42619" lon="6.69578">
        <ele>1944</ele>
        <time>2024-10-21T09:03:15Z</time>
      </trkpt>
      <trkpt lat="44.42709" lon="6.69484">
        <ele>1965</ele>
        <time>2024-10-21T09:03:41Z</time>
      </trkpt>
      <trkpt lat="44.42725" lon="6.69453">
        <ele>1976</ele>
        <time>2024-10-21T09:03:47Z</time>
      </trkpt>
      <trkpt lat="44.42741" lon="6.6943">
        <ele>1984</ele>
        <time>2024-10-21T09:03:53Z</time>
      </trkpt>
      <trkpt lat="44.42754" lon="6.69421">
        <ele>1986</ele>
        <time>2024-10-21T09:03:56Z</time>
      </trkpt>
      <trkpt lat="44.42817" lon="6.69438">
        <ele>1980</ele>
        <time>2024-10-21T09:04:11Z</time>
      </trkpt>
      <trkpt lat="44.42843" lon="6.6944">
        <ele>1979</ele>
        <time>2024-10-21T09:04:17Z</time>
      </trkpt>
      <trkpt lat="44.42874" lon="6.69433">
        <ele>1982</ele>
        <time>2024-10-21T09:04:25Z</time>
      </trkpt>
      <trkpt lat="44.42895" lon="6.69431">
        <ele>1983</ele>
        <time>2024-10-21T09:04:29Z</time>
      </trkpt>
      <trkpt lat="44.42901" lon="6.69423">
        <ele>1986</ele>
        <time>2024-10-21T09:04:31Z</time>
      </trkpt>
      <trkpt lat="44.42901" lon="6.69414">
        <ele>1990</ele>
        <time>2024-10-21T09:04:33Z</time>
      </trkpt>
      <trkpt lat="44.42895" lon="6.69414">
        <ele>1990</ele>
        <time>2024-10-21T09:04:34Z</time>
      </trkpt>
      <trkpt lat="44.42874" lon="6.69419">
        <ele>1988</ele>
        <time>2024-10-21T09:04:39Z</time>
      </trkpt>
      <trkpt lat="44.42844" lon="6.69415">
        <ele>1991</ele>
        <time>2024-10-21T09:04:46Z</time>
      </trkpt>
      <trkpt lat="44.42809" lon="6.69403">
        <ele>1996</ele>
        <time>2024-10-21T09:04:55Z</time>
      </trkpt>
      <trkpt lat="44.42789" lon="6.69381">
        <ele>2005</ele>
        <time>2024-10-21T09:05:01Z</time>
      </trkpt>
      <trkpt lat="44.42738" lon="6.69357">
        <ele>2019</ele>
        <time>2024-10-21T09:05:13Z</time>
      </trkpt>
      <trkpt lat="44.42708" lon="6.69382">
        <ele>2013</ele>
        <time>2024-10-21T09:05:21Z</time>
      </trkpt>
      <trkpt lat="44.42647" lon="6.69402">
        <ele>2013</ele>
        <time>2024-10-21T09:05:36Z</time>
      </trkpt>
      <trkpt lat="44.42574" lon="6.69403">
        <ele>2023</ele>
        <time>2024-10-21T09:05:53Z</time>
      </trkpt>
      <trkpt lat="44.42552" lon="6.69394">
        <ele>2027</ele>
        <time>2024-10-21T09:05:58Z</time>
      </trkpt>
      <trkpt lat="44.42524" lon="6.69392">
        <ele>2028</ele>
        <time>2024-10-21T09:06:05Z</time>
      </trkpt>
      <trkpt lat="44.42513" lon="6.694">
        <ele>2026</ele>
        <time>2024-10-21T09:06:08Z</time>
      </trkpt>
      <trkpt lat="44.425" lon="6.69418">
        <ele>2021</ele>
        <time>2024-10-21T09:06:12Z</time>
      </trkpt>
      <trkpt lat="44.42479" lon="6.69422">
        <ele>2014</ele>
        <time>2024-10-21T09:06:17Z</time>
      </trkpt>
      <trkpt lat="44.42462" lon="6.69387">
        <ele>2019</ele>
        <time>2024-10-21T09:06:24Z</time>
      </trkpt>
      <trkpt lat="44.4244" lon="6.69348">
        <ele>2021</ele>
        <time>2024-10-21T09:06:32Z</time>
      </trkpt>
      <trkpt lat="44.42439" lon="6.69334">
        <ele>2023</ele>
        <time>2024-10-21T09:06:35Z</time>
      </trkpt>
      <trkpt lat="44.42436" lon="6.69297">
        <ele>2026</ele>
        <time>2024-10-21T09:06:41Z</time>
      </trkpt>
      <trkpt lat="44.42446" lon="6.69256">
        <ele>2035</ele>
        <time>2024-10-21T09:06:48Z</time>
      </trkpt>
      <trkpt lat="44.42462" lon="6.69303">
        <ele>2036</ele>
        <time>2024-10-21T09:06:57Z</time>
      </trkpt>
      <trkpt lat="44.42504" lon="6.6932">
        <ele>2049</ele>
        <time>2024-10-21T09:07:07Z</time>
      </trkpt>
      <trkpt lat="44.42506" lon="6.6932">
        <ele>2049</ele>
        <time>2024-10-21T09:07:08Z</time>
      </trkpt>
      <trkpt lat="44.42525" lon="6.69299">
        <ele>2055</ele>
        <time>2024-10-21T09:07:13Z</time>
      </trkpt>
      <trkpt lat="44.42558" lon="6.69277">
        <ele>2063</ele>
        <time>2024-10-21T09:07:22Z</time>
      </trkpt>
      <trkpt lat="44.42646" lon="6.69222">
        <ele>2085</ele>
        <time>2024-10-21T09:07:44Z</time>
      </trkpt>
      <trkpt lat="44.42676" lon="6.69211">
        <ele>2088</ele>
        <time>2024-10-21T09:07:51Z</time>
      </trkpt>
      <trkpt lat="44.42714" lon="6.69153">
        <ele>2104</ele>
        <time>2024-10-21T09:08:05Z</time>
      </trkpt>
      <trkpt lat="44.42757" lon="6.69144">
        <ele>2102</ele>
        <time>2024-10-21T09:08:15Z</time>
      </trkpt>
      <trkpt lat="44.42766" lon="6.6913">
        <ele>2106</ele>
        <time>2024-10-21T09:08:18Z</time>
      </trkpt>
      <trkpt lat="44.42821" lon="6.6908">
        <ele>2113</ele>
        <time>2024-10-21T09:08:33Z</time>
      </trkpt>
      <trkpt lat="44.42795" lon="6.69056">
        <ele>2123</ele>
        <time>2024-10-21T09:08:41Z</time>
      </trkpt>
      <trkpt lat="44.42793" lon="6.69041">
        <ele>2127</ele>
        <time>2024-10-21T09:08:43Z</time>
      </trkpt>
      <trkpt lat="44.42836" lon="6.69021">
        <ele>2122</ele>
        <time>2024-10-21T09:08:54Z</time>
      </trkpt>
      <trkpt lat="44.42833" lon="6.68997">
        <ele>2128</ele>
        <time>2024-10-21T09:08:58Z</time>
      </trkpt>
      <trkpt lat="44.42813" lon="6.6899">
        <ele>2135</ele>
        <time>2024-10-21T09:09:03Z</time>
      </trkpt>
      <trkpt lat="44.4281" lon="6.68972">
        <ele>2140</ele>
        <time>2024-10-21T09:09:06Z</time>
      </trkpt>
      <trkpt lat="44.42859" lon="6.68917">
        <ele>2143</ele>
        <time>2024-10-21T09:09:20Z</time>
      </trkpt>
      <trkpt lat="44.42848" lon="6.68882">
        <ele>2154</ele>
        <time>2024-10-21T09:09:27Z</time>
      </trkpt>
      <trkpt lat="44.4283" lon="6.68895">
        <ele>2154</ele>
        <time>2024-10-21T09:09:31Z</time>
      </trkpt>
      <trkpt lat="44.42814" lon="6.689">
        <ele>2157</ele>
        <time>2024-10-21T09:09:35Z</time>
      </trkpt>
      <trkpt lat="44.42813" lon="6.68884">
        <ele>2160</ele>
        <time>2024-10-21T09:09:38Z</time>
      </trkpt>
      <trkpt lat="44.42818" lon="6.68868">
        <ele>2163</ele>
        <time>2024-10-21T09:09:41Z</time>
      </trkpt>
      <trkpt lat="44.42863" lon="6.68846">
        <ele>2163</ele>
        <time>2024-10-21T09:09:52Z</time>
      </trkpt>
      <trkpt lat="44.42887" lon="6.68804">
        <ele>2172</ele>
        <time>2024-10-21T09:10:01Z</time>
      </trkpt>
      <trkpt lat="44.42903" lon="6.68789">
        <ele>2175</ele>
        <time>2024-10-21T09:10:05Z</time>
      </trkpt>
      <trkpt lat="44.42905" lon="6.68778">
        <ele>2178</ele>
        <time>2024-10-21T09:10:07Z</time>
      </trkpt>
      <trkpt lat="44.42872" lon="6.68787">
        <ele>2177</ele>
        <time>2024-10-21T09:10:15Z</time>
      </trkpt>
      <trkpt lat="44.42853" lon="6.68783">
        <ele>2180</ele>
        <time>2024-10-21T09:10:20Z</time>
      </trkpt>
      <trkpt lat="44.42832" lon="6.68748">
        <ele>2188</ele>
        <time>2024-10-21T09:10:27Z</time>
      </trkpt>
      <trkpt lat="44.42804" lon="6.68741">
        <ele>2180</ele>
        <time>2024-10-21T09:10:34Z</time>
      </trkpt>
      <trkpt lat="44.42805" lon="6.68723">
        <ele>2181</ele>
        <time>2024-10-21T09:10:37Z</time>
      </trkpt>
      <trkpt lat="44.42815" lon="6.68721">
        <ele>2185</ele>
        <time>2024-10-21T09:10:39Z</time>
      </trkpt>
      <trkpt lat="44.42824" lon="6.68705">
        <ele>2190</ele>
        <time>2024-10-21T09:10:43Z</time>
      </trkpt>
      <trkpt lat="44.42855" lon="6.68694">
        <ele>2199</ele>
        <time>2024-10-21T09:10:50Z</time>
      </trkpt>
      <trkpt lat="44.42883" lon="6.68702">
        <ele>2200</ele>
        <time>2024-10-21T09:10:57Z</time>
      </trkpt>
      <trkpt lat="44.42914" lon="6.68675">
        <ele>2212</ele>
        <time>2024-10-21T09:11:05Z</time>
      </trkpt>
      <trkpt lat="44.42924" lon="6.6867">
        <ele>2213</ele>
        <time>2024-10-21T09:11:08Z</time>
      </trkpt>
      <trkpt lat="44.42965" lon="6.6863">
        <ele>2221</ele>
        <time>2024-10-21T09:11:19Z</time>
      </trkpt>
      <trkpt lat="44.42993" lon="6.68609">
        <ele>2226</ele>
        <time>2024-10-21T09:11:27Z</time>
      </trkpt>
      <trkpt lat="44.42994" lon="6.68602">
        <ele>2228</ele>
        <time>2024-10-21T09:11:28Z</time>
      </trkpt>
      <trkpt lat="44.42992" lon="6.68597">
        <ele>2230</ele>
        <time>2024-10-21T09:11:29Z</time>
      </trkpt>
      <trkpt lat="44.42952" lon="6.68614">
        <ele>2226</ele>
        <time>2024-10-21T09:11:39Z</time>
      </trkpt>
      <trkpt lat="44.42927" lon="6.68621">
        <ele>2225</ele>
        <time>2024-10-21T09:11:45Z</time>
      </trkpt>
      <trkpt lat="44.42897" lon="6.68622">
        <ele>2219</ele>
        <time>2024-10-21T09:11:52Z</time>
      </trkpt>
      <trkpt lat="44.42877" lon="6.68608">
        <ele>2215</ele>
        <time>2024-10-21T09:11:57Z</time>
      </trkpt>
      <trkpt lat="44.42871" lon="6.68591">
        <ele>2215</ele>
        <time>2024-10-21T09:12:00Z</time>
      </trkpt>
      <trkpt lat="44.42886" lon="6.68537">
        <ele>2219</ele>
        <time>2024-10-21T09:12:10Z</time>
      </trkpt>
      <trkpt lat="44.42884" lon="6.68517">
        <ele>2217</ele>
        <time>2024-10-21T09:12:13Z</time>
      </trkpt>
      <trkpt lat="44.42906" lon="6.68446">
        <ele>2233</ele>
        <time>2024-10-21T09:12:26Z</time>
      </trkpt>
      <trkpt lat="44.42883" lon="6.68357">
        <ele>2230</ele>
        <time>2024-10-21T09:12:42Z</time>
      </trkpt>
      <trkpt lat="44.42882" lon="6.68344">
        <ele>2232</ele>
        <time>2024-10-21T09:12:44Z</time>
      </trkpt>
      <trkpt lat="44.42877" lon="6.68321">
        <ele>2232</ele>
        <time>2024-10-21T09:12:48Z</time>
      </trkpt>
      <trkpt lat="44.42883" lon="6.68298">
        <ele>2238</ele>
        <time>2024-10-21T09:12:52Z</time>
      </trkpt>
      <trkpt lat="44.42883" lon="6.68298">
        <ele>2238</ele>
        <time>2024-10-21T09:12:52Z</time>
      </trkpt>
      <trkpt lat="44.42885" lon="6.68294">
        <ele>2239</ele>
        <time>2024-10-21T09:12:53Z</time>
      </trkpt>
      <trkpt lat="44.42884" lon="6.68288">
        <ele>2239</ele>
        <time>2024-10-21T09:12:54Z</time>
      </trkpt>
      <trkpt lat="44.42874" lon="6.68258">
        <ele>2236</ele>
        <time>2024-10-21T09:12:59Z</time>
      </trkpt>
      <trkpt lat="44.42873" lon="6.68231">
        <ele>2239</ele>
        <time>2024-10-21T09:13:04Z</time>
      </trkpt>
      <trkpt lat="44.42867" lon="6.68209">
        <ele>2240</ele>
        <time>2024-10-21T09:13:08Z</time>
      </trkpt>
      <trkpt lat="44.4285" lon="6.68174">
        <ele>2238</ele>
        <time>2024-10-21T09:13:15Z</time>
      </trkpt>
      <trkpt lat="44.42835" lon="6.68156">
        <ele>2233</ele>
        <time>2024-10-21T09:13:20Z</time>
      </trkpt>
      <trkpt lat="44.4283" lon="6.68146">
        <ele>2232</ele>
        <time>2024-10-21T09:13:22Z</time>
      </trkpt>
      <trkpt lat="44.42823" lon="6.68123">
        <ele>2233</ele>
        <time>2024-10-21T09:13:26Z</time>
      </trkpt>
      <trkpt lat="44.42809" lon="6.68096">
        <ele>2232</ele>
        <time>2024-10-21T09:13:31Z</time>
      </trkpt>
      <trkpt lat="44.42793" lon="6.68079">
        <ele>2228</ele>
        <time>2024-10-21T09:13:36Z</time>
      </trkpt>
      <trkpt lat="44.42779" lon="6.68074">
        <ele>2222</ele>
        <time>2024-10-21T09:13:39Z</time>
      </trkpt>
      <trkpt lat="44.42779" lon="6.6807">
        <ele>2221</ele>
        <time>2024-10-21T09:13:40Z</time>
      </trkpt>
      <trkpt lat="44.42778" lon="6.68067">
        <ele>2221</ele>
        <time>2024-10-21T09:13:41Z</time>
      </trkpt>
      <trkpt lat="44.42778" lon="6.68057">
        <ele>2220</ele>
        <time>2024-10-21T09:13:42Z</time>
      </trkpt>
      <trkpt lat="44.42776" lon="6.68035">
        <ele>2217</ele>
        <time>2024-10-21T09:13:46Z</time>
      </trkpt>
      <trkpt lat="44.42778" lon="6.68013">
        <ele>2217</ele>
        <time>2024-10-21T09:13:50Z</time>
      </trkpt>
      <trkpt lat="44.42784" lon="6.67994">
        <ele>2220</ele>
        <time>2024-10-21T09:13:53Z</time>
      </trkpt>
      <trkpt lat="44.42793" lon="6.67977">
        <ele>2224</ele>
        <time>2024-10-21T09:13:57Z</time>
      </trkpt>
      <trkpt lat="44.42797" lon="6.67964">
        <ele>2226</ele>
        <time>2024-10-21T09:13:59Z</time>
      </trkpt>
      <trkpt lat="44.428" lon="6.67917">
        <ele>2226</ele>
        <time>2024-10-21T09:14:07Z</time>
      </trkpt>
      <trkpt lat="44.42805" lon="6.67902">
        <ele>2233</ele>
        <time>2024-10-21T09:14:10Z</time>
      </trkpt>
      <trkpt lat="44.42818" lon="6.67887">
        <ele>2244</ele>
        <time>2024-10-21T09:14:14Z</time>
      </trkpt>
      <trkpt lat="44.42828" lon="6.6786">
        <ele>2256</ele>
        <time>2024-10-21T09:14:19Z</time>
      </trkpt>
      <trkpt lat="44.42828" lon="6.67857">
        <ele>2257</ele>
        <time>2024-10-21T09:14:19Z</time>
      </trkpt>
      <trkpt lat="44.42828" lon="6.67857">
        <ele>2257</ele>
        <time>2024-10-21T09:14:19Z</time>
      </trkpt>
      <trkpt lat="44.42827" lon="6.67847">
        <ele>2260</ele>
        <time>2024-10-21T09:14:21Z</time>
      </trkpt>
      <trkpt lat="44.42823" lon="6.67845">
        <ele>2259</ele>
        <time>2024-10-21T09:14:22Z</time>
      </trkpt>
      <trkpt lat="44.4282" lon="6.67847">
        <ele>2257</ele>
        <time>2024-10-21T09:14:23Z</time>
      </trkpt>
      <trkpt lat="44.4281" lon="6.67847">
        <ele>2252</ele>
        <time>2024-10-21T09:14:25Z</time>
      </trkpt>
      <trkpt lat="44.42803" lon="6.67844">
        <ele>2249</ele>
        <time>2024-10-21T09:14:27Z</time>
      </trkpt>
      <trkpt lat="44.42793" lon="6.6783">
        <ele>2249</ele>
        <time>2024-10-21T09:14:30Z</time>
      </trkpt>
      <trkpt lat="44.42789" lon="6.67828">
        <ele>2247</ele>
        <time>2024-10-21T09:14:31Z</time>
      </trkpt>
      <trkpt lat="44.42789" lon="6.67828">
        <ele>2247</ele>
        <time>2024-10-21T09:14:31Z</time>
      </trkpt>
      <trkpt lat="44.42771" lon="6.6782">
        <ele>2242</ele>
        <time>2024-10-21T09:14:35Z</time>
      </trkpt>
      <trkpt lat="44.4275" lon="6.67826">
        <ele>2230</ele>
        <time>2024-10-21T09:14:40Z</time>
      </trkpt>
      <trkpt lat="44.4274" lon="6.67826">
        <ele>2228</ele>
        <time>2024-10-21T09:14:43Z</time>
      </trkpt>
      <trkpt lat="44.42733" lon="6.67825">
        <ele>2227</ele>
        <time>2024-10-21T09:14:44Z</time>
      </trkpt>
      <trkpt lat="44.42701" lon="6.67815">
        <ele>2224</ele>
        <time>2024-10-21T09:14:52Z</time>
      </trkpt>
      <trkpt lat="44.42696" lon="6.67812">
        <ele>2224</ele>
        <time>2024-10-21T09:14:53Z</time>
      </trkpt>
      <trkpt lat="44.42666" lon="6.67781">
        <ele>2231</ele>
        <time>2024-10-21T09:15:02Z</time>
      </trkpt>
      <trkpt lat="44.42638" lon="6.67761">
        <ele>2230</ele>
        <time>2024-10-21T09:15:09Z</time>
      </trkpt>
      <trkpt lat="44.42629" lon="6.67752">
        <ele>2231</ele>
        <time>2024-10-21T09:15:12Z</time>
      </trkpt>
      <trkpt lat="44.42615" lon="6.67741">
        <ele>2231</ele>
        <time>2024-10-21T09:15:16Z</time>
      </trkpt>
      <trkpt lat="44.42578" lon="6.67713">
        <ele>2231</ele>
        <time>2024-10-21T09:15:26Z</time>
      </trkpt>
      <trkpt lat="44.42559" lon="6.67706">
        <ele>2228</ele>
        <time>2024-10-21T09:15:30Z</time>
      </trkpt>
      <trkpt lat="44.42485" lon="6.67709">
        <ele>2205</ele>
        <time>2024-10-21T09:15:47Z</time>
      </trkpt>
      <trkpt lat="44.42446" lon="6.677">
        <ele>2198</ele>
        <time>2024-10-21T09:15:57Z</time>
      </trkpt>
      <trkpt lat="44.4241" lon="6.67679">
        <ele>2199</ele>
        <time>2024-10-21T09:16:06Z</time>
      </trkpt>
      <trkpt lat="44.42358" lon="6.67709">
        <ele>2180</ele>
        <time>2024-10-21T09:16:19Z</time>
      </trkpt>
      <trkpt lat="44.42336" lon="6.67709">
        <ele>2177</ele>
        <time>2024-10-21T09:16:24Z</time>
      </trkpt>
      <trkpt lat="44.42319" lon="6.67717">
        <ele>2173</ele>
        <time>2024-10-21T09:16:28Z</time>
      </trkpt>
      <trkpt lat="44.42255" lon="6.67779">
        <ele>2141</ele>
        <time>2024-10-21T09:16:46Z</time>
      </trkpt>
      <trkpt lat="44.4229" lon="6.67762">
        <ele>2150</ele>
        <time>2024-10-21T09:16:55Z</time>
      </trkpt>
      <trkpt lat="44.42264" lon="6.67801">
        <ele>2129</ele>
        <time>2024-10-21T09:17:04Z</time>
      </trkpt>
      <trkpt lat="44.42228" lon="6.67829">
        <ele>2115</ele>
        <time>2024-10-21T09:17:14Z</time>
      </trkpt>
      <trkpt lat="44.42268" lon="6.67831">
        <ele>2113</ele>
        <time>2024-10-21T09:17:23Z</time>
      </trkpt>
      <trkpt lat="44.42254" lon="6.67852">
        <ele>2104</ele>
        <time>2024-10-21T09:17:28Z</time>
      </trkpt>
      <trkpt lat="44.42231" lon="6.6787">
        <ele>2097</ele>
        <time>2024-10-21T09:17:34Z</time>
      </trkpt>
      <trkpt lat="44.42188" lon="6.67865">
        <ele>2099</ele>
        <time>2024-10-21T09:17:44Z</time>
      </trkpt>
      <trkpt lat="44.42154" lon="6.67882">
        <ele>2089</ele>
        <time>2024-10-21T09:17:52Z</time>
      </trkpt>
      <trkpt lat="44.42065" lon="6.67874">
        <ele>2065</ele>
        <time>2024-10-21T09:18:13Z</time>
      </trkpt>
      <trkpt lat="44.42049" lon="6.67889">
        <ele>2051</ele>
        <time>2024-10-21T09:18:18Z</time>
      </trkpt>
      <trkpt lat="44.42028" lon="6.67893">
        <ele>2038</ele>
        <time>2024-10-21T09:18:23Z</time>
      </trkpt>
      <trkpt lat="44.42012" lon="6.67872">
        <ele>2031</ele>
        <time>2024-10-21T09:18:28Z</time>
      </trkpt>
      <trkpt lat="44.41968" lon="6.6793">
        <ele>1998</ele>
        <time>2024-10-21T09:18:42Z</time>
      </trkpt>
      <trkpt lat="44.4195" lon="6.67925">
        <ele>1989</ele>
        <time>2024-10-21T09:18:46Z</time>
      </trkpt>
      <trkpt lat="44.41975" lon="6.6797">
        <ele>1992</ele>
        <time>2024-10-21T09:18:56Z</time>
      </trkpt>
      <trkpt lat="44.41917" lon="6.6796">
        <ele>1969</ele>
        <time>2024-10-21T09:19:09Z</time>
      </trkpt>
      <trkpt lat="44.41921" lon="6.67985">
        <ele>1968</ele>
        <time>2024-10-21T09:19:14Z</time>
      </trkpt>
      <trkpt lat="44.41933" lon="6.68005">
        <ele>1969</ele>
        <time>2024-10-21T09:19:18Z</time>
      </trkpt>
      <trkpt lat="44.41903" lon="6.67993">
        <ele>1960</ele>
        <time>2024-10-21T09:19:25Z</time>
      </trkpt>
      <trkpt lat="44.41917" lon="6.6803">
        <ele>1953</ele>
        <time>2024-10-21T09:19:32Z</time>
      </trkpt>
      <trkpt lat="44.41918" lon="6.68044">
        <ele>1947</ele>
        <time>2024-10-21T09:19:35Z</time>
      </trkpt>
      <trkpt lat="44.41911" lon="6.6804">
        <ele>1946</ele>
        <time>2024-10-21T09:19:36Z</time>
      </trkpt>
      <trkpt lat="44.41888" lon="6.68033">
        <ele>1940</ele>
        <time>2024-10-21T09:19:42Z</time>
      </trkpt>
      <trkpt lat="44.41865" lon="6.68032">
        <ele>1932</ele>
        <time>2024-10-21T09:19:47Z</time>
      </trkpt>
      <trkpt lat="44.41858" lon="6.68025">
        <ele>1931</ele>
        <time>2024-10-21T09:19:49Z</time>
      </trkpt>
      <trkpt lat="44.41831" lon="6.68024">
        <ele>1920</ele>
        <time>2024-10-21T09:19:55Z</time>
      </trkpt>
      <trkpt lat="44.41827" lon="6.68019">
        <ele>1920</ele>
        <time>2024-10-21T09:19:57Z</time>
      </trkpt>
      <trkpt lat="44.41815" lon="6.68018">
        <ele>1915</ele>
        <time>2024-10-21T09:20:00Z</time>
      </trkpt>
      <trkpt lat="44.41793" lon="6.68023">
        <ele>1905</ele>
        <time>2024-10-21T09:20:05Z</time>
      </trkpt>
      <trkpt lat="44.41784" lon="6.68022">
        <ele>1901</ele>
        <time>2024-10-21T09:20:07Z</time>
      </trkpt>
      <trkpt lat="44.41774" lon="6.68028">
        <ele>1896</ele>
        <time>2024-10-21T09:20:09Z</time>
      </trkpt>
      <trkpt lat="44.41766" lon="6.68033">
        <ele>1892</ele>
        <time>2024-10-21T09:20:11Z</time>
      </trkpt>
      <trkpt lat="44.4175" lon="6.68049">
        <ele>1884</ele>
        <time>2024-10-21T09:20:16Z</time>
      </trkpt>
      <trkpt lat="44.41667" lon="6.68074">
        <ele>1865</ele>
        <time>2024-10-21T09:20:36Z</time>
      </trkpt>
      <trkpt lat="44.41645" lon="6.68086">
        <ele>1860</ele>
        <time>2024-10-21T09:20:41Z</time>
      </trkpt>
      <trkpt lat="44.41628" lon="6.68078">
        <ele>1857</ele>
        <time>2024-10-21T09:20:46Z</time>
      </trkpt>
      <trkpt lat="44.41586" lon="6.68076">
        <ele>1847</ele>
        <time>2024-10-21T09:20:55Z</time>
      </trkpt>
      <trkpt lat="44.41549" lon="6.68065">
        <ele>1835</ele>
        <time>2024-10-21T09:21:04Z</time>
      </trkpt>
      <trkpt lat="44.41507" lon="6.68063">
        <ele>1822</ele>
        <time>2024-10-21T09:21:14Z</time>
      </trkpt>
      <trkpt lat="44.41486" lon="6.68069">
        <ele>1816</ele>
        <time>2024-10-21T09:21:19Z</time>
      </trkpt>
      <trkpt lat="44.41463" lon="6.68063">
        <ele>1807</ele>
        <time>2024-10-21T09:21:24Z</time>
      </trkpt>
      <trkpt lat="44.4145" lon="6.68088">
        <ele>1803</ele>
        <time>2024-10-21T09:21:30Z</time>
      </trkpt>
      <trkpt lat="44.41451" lon="6.68114">
        <ele>1798</ele>
        <time>2024-10-21T09:21:34Z</time>
      </trkpt>
      <trkpt lat="44.41465" lon="6.68133">
        <ele>1799</ele>
        <time>2024-10-21T09:21:39Z</time>
      </trkpt>
      <trkpt lat="44.41459" lon="6.68157">
        <ele>1792</ele>
        <time>2024-10-21T09:21:43Z</time>
      </trkpt>
      <trkpt lat="44.41438" lon="6.68159">
        <ele>1786</ele>
        <time>2024-10-21T09:21:48Z</time>
      </trkpt>
      <trkpt lat="44.41419" lon="6.68151">
        <ele>1783</ele>
        <time>2024-10-21T09:21:52Z</time>
      </trkpt>
      <trkpt lat="44.41404" lon="6.68136">
        <ele>1782</ele>
        <time>2024-10-21T09:21:57Z</time>
      </trkpt>
      <trkpt lat="44.41357" lon="6.68125">
        <ele>1772</ele>
        <time>2024-10-21T09:22:08Z</time>
      </trkpt>
      <trkpt lat="44.41334" lon="6.68128">
        <ele>1766</ele>
        <time>2024-10-21T09:22:13Z</time>
      </trkpt>
      <trkpt lat="44.41319" lon="6.68126">
        <ele>1765</ele>
        <time>2024-10-21T09:22:17Z</time>
      </trkpt>
      <trkpt lat="44.4131" lon="6.68125">
        <ele>1764</ele>
        <time>2024-10-21T09:22:19Z</time>
      </trkpt>
      <trkpt lat="44.41283" lon="6.68176">
        <ele>1760</ele>
        <time>2024-10-21T09:22:29Z</time>
      </trkpt>
      <trkpt lat="44.41317" lon="6.68198">
        <ele>1757</ele>
        <time>2024-10-21T09:22:38Z</time>
      </trkpt>
      <trkpt lat="44.41345" lon="6.68229">
        <ele>1752</ele>
        <time>2024-10-21T09:22:46Z</time>
      </trkpt>
      <trkpt lat="44.41344" lon="6.68235">
        <ele>1751</ele>
        <time>2024-10-21T09:22:47Z</time>
      </trkpt>
      <trkpt lat="44.41314" lon="6.68235">
        <ele>1748</ele>
        <time>2024-10-21T09:22:55Z</time>
      </trkpt>
      <trkpt lat="44.41285" lon="6.68245">
        <ele>1747</ele>
        <time>2024-10-21T09:23:01Z</time>
      </trkpt>
      <trkpt lat="44.4125" lon="6.68271">
        <ele>1739</ele>
        <time>2024-10-21T09:23:11Z</time>
      </trkpt>
      <trkpt lat="44.41216" lon="6.68304">
        <ele>1731</ele>
        <time>2024-10-21T09:23:20Z</time>
      </trkpt>
      <trkpt lat="44.41196" lon="6.68351">
        <ele>1720</ele>
        <time>2024-10-21T09:23:30Z</time>
      </trkpt>
      <trkpt lat="44.41227" lon="6.6835">
        <ele>1717</ele>
        <time>2024-10-21T09:23:37Z</time>
      </trkpt>
      <trkpt lat="44.41205" lon="6.684">
        <ele>1704</ele>
        <time>2024-10-21T09:23:47Z</time>
      </trkpt>
      <trkpt lat="44.41185" lon="6.68421">
        <ele>1699</ele>
        <time>2024-10-21T09:23:52Z</time>
      </trkpt>
      <trkpt lat="44.41206" lon="6.68437">
        <ele>1690</ele>
        <time>2024-10-21T09:23:58Z</time>
      </trkpt>
      <trkpt lat="44.412" lon="6.68444">
        <ele>1688</ele>
        <time>2024-10-21T09:24:00Z</time>
      </trkpt>
      <trkpt lat="44.4118" lon="6.68453">
        <ele>1686</ele>
        <time>2024-10-21T09:24:05Z</time>
      </trkpt>
      <trkpt lat="44.41192" lon="6.68471">
        <ele>1678</ele>
        <time>2024-10-21T09:24:09Z</time>
      </trkpt>
      <trkpt lat="44.41193" lon="6.68485">
        <ele>1673</ele>
        <time>2024-10-21T09:24:11Z</time>
      </trkpt>
      <trkpt lat="44.4119" lon="6.68483">
        <ele>1674</ele>
        <time>2024-10-21T09:24:12Z</time>
      </trkpt>
      <trkpt lat="44.41149" lon="6.68478">
        <ele>1672</ele>
        <time>2024-10-21T09:24:22Z</time>
      </trkpt>
      <trkpt lat="44.41178" lon="6.68529">
        <ele>1660</ele>
        <time>2024-10-21T09:24:32Z</time>
      </trkpt>
      <trkpt lat="44.41165" lon="6.68539">
        <ele>1657</ele>
        <time>2024-10-21T09:24:36Z</time>
      </trkpt>
      <trkpt lat="44.41168" lon="6.68567">
        <ele>1649</ele>
        <time>2024-10-21T09:24:41Z</time>
      </trkpt>
      <trkpt lat="44.4115" lon="6.68582">
        <ele>1640</ele>
        <time>2024-10-21T09:24:46Z</time>
      </trkpt>
      <trkpt lat="44.41123" lon="6.68578">
        <ele>1634</ele>
        <time>2024-10-21T09:24:52Z</time>
      </trkpt>
      <trkpt lat="44.41111" lon="6.68601">
        <ele>1624</ele>
        <time>2024-10-21T09:24:57Z</time>
      </trkpt>
      <trkpt lat="44.41112" lon="6.68605">
        <ele>1623</ele>
        <time>2024-10-21T09:24:57Z</time>
      </trkpt>
      <trkpt lat="44.4112" lon="6.68636">
        <ele>1617</ele>
        <time>2024-10-21T09:25:03Z</time>
      </trkpt>
      <trkpt lat="44.4112" lon="6.68663">
        <ele>1609</ele>
        <time>2024-10-21T09:25:07Z</time>
      </trkpt>
      <trkpt lat="44.41116" lon="6.68663">
        <ele>1608</ele>
        <time>2024-10-21T09:25:08Z</time>
      </trkpt>
      <trkpt lat="44.41098" lon="6.68663">
        <ele>1604</ele>
        <time>2024-10-21T09:25:12Z</time>
      </trkpt>
      <trkpt lat="44.41092" lon="6.68681">
        <ele>1598</ele>
        <time>2024-10-21T09:25:16Z</time>
      </trkpt>
      <trkpt lat="44.41037" lon="6.68657">
        <ele>1582</ele>
        <time>2024-10-21T09:25:29Z</time>
      </trkpt>
      <trkpt lat="44.41004" lon="6.68627">
        <ele>1573</ele>
        <time>2024-10-21T09:25:38Z</time>
      </trkpt>
      <trkpt lat="44.40986" lon="6.68631">
        <ele>1564</ele>
        <time>2024-10-21T09:25:43Z</time>
      </trkpt>
      <trkpt lat="44.40987" lon="6.68657">
        <ele>1559</ele>
        <time>2024-10-21T09:25:47Z</time>
      </trkpt>
      <trkpt lat="44.40996" lon="6.68679">
        <ele>1558</ele>
        <time>2024-10-21T09:25:51Z</time>
      </trkpt>
      <trkpt lat="44.41041" lon="6.68734">
        <ele>1564</ele>
        <time>2024-10-21T09:26:05Z</time>
      </trkpt>
      <trkpt lat="44.41048" lon="6.68758">
        <ele>1559</ele>
        <time>2024-10-21T09:26:10Z</time>
      </trkpt>
      <trkpt lat="44.41032" lon="6.68773">
        <ele>1546</ele>
        <time>2024-10-21T09:26:14Z</time>
      </trkpt>
      <trkpt lat="44.40994" lon="6.68762">
        <ele>1534</ele>
        <time>2024-10-21T09:26:23Z</time>
      </trkpt>
      <trkpt lat="44.40983" lon="6.68767">
        <ele>1528</ele>
        <time>2024-10-21T09:26:26Z</time>
      </trkpt>
      <trkpt lat="44.40959" lon="6.68779">
        <ele>1516</ele>
        <time>2024-10-21T09:26:32Z</time>
      </trkpt>
      <trkpt lat="44.40937" lon="6.68829">
        <ele>1496</ele>
        <time>2024-10-21T09:26:42Z</time>
      </trkpt>
      <trkpt lat="44.40918" lon="6.68818">
        <ele>1493</ele>
        <time>2024-10-21T09:26:46Z</time>
      </trkpt>
      <trkpt lat="44.409" lon="6.68835">
        <ele>1483</ele>
        <time>2024-10-21T09:26:51Z</time>
      </trkpt>
      <trkpt lat="44.40862" lon="6.68822">
        <ele>1471</ele>
        <time>2024-10-21T09:27:01Z</time>
      </trkpt>
      <trkpt lat="44.40842" lon="6.68824">
        <ele>1463</ele>
        <time>2024-10-21T09:27:05Z</time>
      </trkpt>
      <trkpt lat="44.40844" lon="6.68827">
        <ele>1463</ele>
        <time>2024-10-21T09:27:06Z</time>
      </trkpt>
      <trkpt lat="44.40904" lon="6.68895">
        <ele>1466</ele>
        <time>2024-10-21T09:27:24Z</time>
      </trkpt>
      <trkpt lat="44.40903" lon="6.68955">
        <ele>1448</ele>
        <time>2024-10-21T09:27:34Z</time>
      </trkpt>
      <trkpt lat="44.40917" lon="6.68972">
        <ele>1447</ele>
        <time>2024-10-21T09:27:38Z</time>
      </trkpt>
      <trkpt lat="44.40915" lon="6.68998">
        <ele>1440</ele>
        <time>2024-10-21T09:27:43Z</time>
      </trkpt>
      <trkpt lat="44.40891" lon="6.69048">
        <ele>1418</ele>
        <time>2024-10-21T09:27:53Z</time>
      </trkpt>
      <trkpt lat="44.40924" lon="6.69084">
        <ele>1416</ele>
        <time>2024-10-21T09:28:02Z</time>
      </trkpt>
      <trkpt lat="44.40923" lon="6.69112">
        <ele>1406</ele>
        <time>2024-10-21T09:28:07Z</time>
      </trkpt>
      <trkpt lat="44.40931" lon="6.69142">
        <ele>1394</ele>
        <time>2024-10-21T09:28:12Z</time>
      </trkpt>
      <trkpt lat="44.40924" lon="6.69166">
        <ele>1386</ele>
        <time>2024-10-21T09:28:17Z</time>
      </trkpt>
      <trkpt lat="44.40942" lon="6.69183">
        <ele>1377</ele>
        <time>2024-10-21T09:28:22Z</time>
      </trkpt>
      <trkpt lat="44.40964" lon="6.69185">
        <ele>1376</ele>
        <time>2024-10-21T09:28:27Z</time>
      </trkpt>
      <trkpt lat="44.41003" lon="6.69206">
        <ele>1370</ele>
        <time>2024-10-21T09:28:37Z</time>
      </trkpt>
      <trkpt lat="44.41041" lon="6.69213">
        <ele>1372</ele>
        <time>2024-10-21T09:28:46Z</time>
      </trkpt>
      <trkpt lat="44.41042" lon="6.69217">
        <ele>1371</ele>
        <time>2024-10-21T09:28:46Z</time>
      </trkpt>
      <trkpt lat="44.41046" lon="6.69241">
        <ele>1362</ele>
        <time>2024-10-21T09:28:51Z</time>
      </trkpt>
      <trkpt lat="44.41042" lon="6.69266">
        <ele>1355</ele>
        <time>2024-10-21T09:28:55Z</time>
      </trkpt>
      <trkpt lat="44.41031" lon="6.69288">
        <ele>1348</ele>
        <time>2024-10-21T09:28:59Z</time>
      </trkpt>
      <trkpt lat="44.41012" lon="6.69305">
        <ele>1340</ele>
        <time>2024-10-21T09:29:05Z</time>
      </trkpt>
      <trkpt lat="44.40939" lon="6.69344">
        <ele>1315</ele>
        <time>2024-10-21T09:29:23Z</time>
      </trkpt>
      <trkpt lat="44.40915" lon="6.69357">
        <ele>1307</ele>
        <time>2024-10-21T09:29:29Z</time>
      </trkpt>
      <trkpt lat="44.40898" lon="6.69374">
        <ele>1302</ele>
        <time>2024-10-21T09:29:34Z</time>
      </trkpt>
      <trkpt lat="44.4089" lon="6.69378">
        <ele>1300</ele>
        <time>2024-10-21T09:29:36Z</time>
      </trkpt>
      <trkpt lat="44.40844" lon="6.69389">
        <ele>1290</ele>
        <time>2024-10-21T09:29:47Z</time>
      </trkpt>
      <trkpt lat="44.40817" lon="6.69402">
        <ele>1283</ele>
        <time>2024-10-21T09:29:53Z</time>
      </trkpt>
      <trkpt lat="44.40806" lon="6.69412">
        <ele>1280</ele>
        <time>2024-10-21T09:29:56Z</time>
      </trkpt>
      <trkpt lat="44.40799" lon="6.69421">
        <ele>1279</ele>
        <time>2024-10-21T09:29:59Z</time>
      </trkpt>
      <trkpt lat="44.40795" lon="6.69432">
        <ele>1279</ele>
        <time>2024-10-21T09:30:01Z</time>
      </trkpt>
      <trkpt lat="44.40793" lon="6.69437">
        <ele>1279</ele>
        <time>2024-10-21T09:30:02Z</time>
      </trkpt>
      <trkpt lat="44.40766" lon="6.69425">
        <ele>1275</ele>
        <time>2024-10-21T09:30:08Z</time>
      </trkpt>
      <trkpt lat="44.40699" lon="6.69433">
        <ele>1265</ele>
        <time>2024-10-21T09:30:24Z</time>
      </trkpt>
      <trkpt lat="44.40688" lon="6.69452">
        <ele>1263</ele>
        <time>2024-10-21T09:30:28Z</time>
      </trkpt>
      <trkpt lat="44.40684" lon="6.69477">
        <ele>1262</ele>
        <time>2024-10-21T09:30:32Z</time>
      </trkpt>
      <trkpt lat="44.40629" lon="6.69522">
        <ele>1254</ele>
        <time>2024-10-21T09:30:47Z</time>
      </trkpt>
      <trkpt lat="44.406" lon="6.69552">
        <ele>1250</ele>
        <time>2024-10-21T09:30:56Z</time>
      </trkpt>
      <trkpt lat="44.40575" lon="6.69577">
        <ele>1245</ele>
        <time>2024-10-21T09:31:03Z</time>
      </trkpt>
      <trkpt lat="44.40548" lon="6.69627">
        <ele>1236</ele>
        <time>2024-10-21T09:31:13Z</time>
      </trkpt>
      <trkpt lat="44.40544" lon="6.69634">
        <ele>1235</ele>
        <time>2024-10-21T09:31:15Z</time>
      </trkpt>
      <trkpt lat="44.40548" lon="6.69627">
        <ele>1236</ele>
        <time>2024-10-21T09:31:16Z</time>
      </trkpt>
      <trkpt lat="44.40581" lon="6.69638">
        <ele>1240</ele>
        <time>2024-10-21T09:31:24Z</time>
      </trkpt>
      <trkpt lat="44.40634" lon="6.69674">
        <ele>1251</ele>
        <time>2024-10-21T09:31:38Z</time>
      </trkpt>
      <trkpt lat="44.4066" lon="6.69723">
        <ele>1246</ele>
        <time>2024-10-21T09:31:48Z</time>
      </trkpt>
      <trkpt lat="44.40678" lon="6.69748">
        <ele>1245</ele>
        <time>2024-10-21T09:31:54Z</time>
      </trkpt>
      <trkpt lat="44.40697" lon="6.69767">
        <ele>1249</ele>
        <time>2024-10-21T09:31:59Z</time>
      </trkpt>
      <trkpt lat="44.40718" lon="6.69775">
        <ele>1255</ele>
        <time>2024-10-21T09:32:04Z</time>
      </trkpt>
      <trkpt lat="44.40724" lon="6.69808">
        <ele>1253</ele>
        <time>2024-10-21T09:32:10Z</time>
      </trkpt>
      <trkpt lat="44.40756" lon="6.69834">
        <ele>1261</ele>
        <time>2024-10-21T09:32:19Z</time>
      </trkpt>
      <trkpt lat="44.4076" lon="6.69852">
        <ele>1261</ele>
        <time>2024-10-21T09:32:22Z</time>
      </trkpt>
      <trkpt lat="44.40779" lon="6.6987">
        <ele>1269</ele>
        <time>2024-10-21T09:32:27Z</time>
      </trkpt>
      <trkpt lat="44.40789" lon="6.69887">
        <ele>1272</ele>
        <time>2024-10-21T09:32:31Z</time>
      </trkpt>
      <trkpt lat="44.40798" lon="6.69898">
        <ele>1275</ele>
        <time>2024-10-21T09:32:34Z</time>
      </trkpt>
      <trkpt lat="44.40805" lon="6.69917">
        <ele>1277</ele>
        <time>2024-10-21T09:32:37Z</time>
      </trkpt>
      <trkpt lat="44.40807" lon="6.69938">
        <ele>1277</ele>
        <time>2024-10-21T09:32:41Z</time>
      </trkpt>
      <trkpt lat="44.40835" lon="6.7002">
        <ele>1286</ele>
        <time>2024-10-21T09:32:56Z</time>
      </trkpt>
      <trkpt lat="44.40831" lon="6.7004">
        <ele>1284</ele>
        <time>2024-10-21T09:32:59Z</time>
      </trkpt>
      <trkpt lat="44.40829" lon="6.70059">
        <ele>1283</ele>
        <time>2024-10-21T09:33:03Z</time>
      </trkpt>
      <trkpt lat="44.40831" lon="6.70071">
        <ele>1284</ele>
        <time>2024-10-21T09:33:05Z</time>
      </trkpt>
      <trkpt lat="44.40838" lon="6.70087">
        <ele>1286</ele>
        <time>2024-10-21T09:33:08Z</time>
      </trkpt>
      <trkpt lat="44.40842" lon="6.70089">
        <ele>1288</ele>
        <time>2024-10-21T09:33:09Z</time>
      </trkpt>
      <trkpt lat="44.40848" lon="6.70147">
        <ele>1289</ele>
        <time>2024-10-21T09:33:19Z</time>
      </trkpt>
      <trkpt lat="44.40853" lon="6.70163">
        <ele>1290</ele>
        <time>2024-10-21T09:33:22Z</time>
      </trkpt>
      <trkpt lat="44.40861" lon="6.70169">
        <ele>1292</ele>
        <time>2024-10-21T09:33:24Z</time>
      </trkpt>
      <trkpt lat="44.40894" lon="6.70194">
        <ele>1301</ele>
        <time>2024-10-21T09:33:32Z</time>
      </trkpt>
      <trkpt lat="44.409" lon="6.70202">
        <ele>1303</ele>
        <time>2024-10-21T09:33:34Z</time>
      </trkpt>
      <trkpt lat="44.40901" lon="6.70214">
        <ele>1302</ele>
        <time>2024-10-21T09:33:36Z</time>
      </trkpt>
      <trkpt lat="44.409" lon="6.70233">
        <ele>1301</ele>
        <time>2024-10-21T09:33:40Z</time>
      </trkpt>
      <trkpt lat="44.40901" lon="6.70241">
        <ele>1301</ele>
        <time>2024-10-21T09:33:41Z</time>
      </trkpt>
      <trkpt lat="44.40905" lon="6.70251">
        <ele>1301</ele>
        <time>2024-10-21T09:33:43Z</time>
      </trkpt>
      <trkpt lat="44.40923" lon="6.70258">
        <ele>1306</ele>
        <time>2024-10-21T09:33:47Z</time>
      </trkpt>
      <trkpt lat="44.40934" lon="6.70259">
        <ele>1309</ele>
        <time>2024-10-21T09:33:50Z</time>
      </trkpt>
      <trkpt lat="44.40942" lon="6.70256">
        <ele>1311</ele>
        <time>2024-10-21T09:33:52Z</time>
      </trkpt>
      <trkpt lat="44.4095" lon="6.70262">
        <ele>1313</ele>
        <time>2024-10-21T09:33:54Z</time>
      </trkpt>
      <trkpt lat="44.4096" lon="6.7028">
        <ele>1313</ele>
        <time>2024-10-21T09:33:58Z</time>
      </trkpt>
      <trkpt lat="44.40973" lon="6.70312">
        <ele>1313</ele>
        <time>2024-10-21T09:34:04Z</time>
      </trkpt>
      <trkpt lat="44.40976" lon="6.70355">
        <ele>1307</ele>
        <time>2024-10-21T09:34:11Z</time>
      </trkpt>
      <trkpt lat="44.40989" lon="6.70388">
        <ele>1307</ele>
        <time>2024-10-21T09:34:17Z</time>
      </trkpt>
      <trkpt lat="44.41001" lon="6.70408">
        <ele>1308</ele>
        <time>2024-10-21T09:34:22Z</time>
      </trkpt>
      <trkpt lat="44.41007" lon="6.70424">
        <ele>1308</ele>
        <time>2024-10-21T09:34:25Z</time>
      </trkpt>
      <trkpt lat="44.41006" lon="6.70482">
        <ele>1299</ele>
        <time>2024-10-21T09:34:34Z</time>
      </trkpt>
      <trkpt lat="44.41009" lon="6.70489">
        <ele>1299</ele>
        <time>2024-10-21T09:34:36Z</time>
      </trkpt>
      <trkpt lat="44.41029" lon="6.70507">
        <ele>1303</ele>
        <time>2024-10-21T09:34:41Z</time>
      </trkpt>
      <trkpt lat="44.41074" lon="6.70589">
        <ele>1303</ele>
        <time>2024-10-21T09:34:58Z</time>
      </trkpt>
      <trkpt lat="44.41084" lon="6.70622">
        <ele>1303</ele>
        <time>2024-10-21T09:35:04Z</time>
      </trkpt>
      <trkpt lat="44.41085" lon="6.70636">
        <ele>1303</ele>
        <time>2024-10-21T09:35:07Z</time>
      </trkpt>
      <trkpt lat="44.41082" lon="6.70686">
        <ele>1298</ele>
        <time>2024-10-21T09:35:15Z</time>
      </trkpt>
      <trkpt lat="44.41088" lon="6.70715">
        <ele>1297</ele>
        <time>2024-10-21T09:35:20Z</time>
      </trkpt>
      <trkpt lat="44.41097" lon="6.7074">
        <ele>1298</ele>
        <time>2024-10-21T09:35:25Z</time>
      </trkpt>
      <trkpt lat="44.41101" lon="6.70773">
        <ele>1297</ele>
        <time>2024-10-21T09:35:30Z</time>
      </trkpt>
      <trkpt lat="44.41103" lon="6.70811">
        <ele>1294</ele>
        <time>2024-10-21T09:35:37Z</time>
      </trkpt>
      <trkpt lat="44.41113" lon="6.70846">
        <ele>1294</ele>
        <time>2024-10-21T09:35:43Z</time>
      </trkpt>
      <trkpt lat="44.41121" lon="6.70864">
        <ele>1295</ele>
        <time>2024-10-21T09:35:47Z</time>
      </trkpt>
      <trkpt lat="44.41138" lon="6.70884">
        <ele>1298</ele>
        <time>2024-10-21T09:35:52Z</time>
      </trkpt>
      <trkpt lat="44.41158" lon="6.70896">
        <ele>1302</ele>
        <time>2024-10-21T09:35:57Z</time>
      </trkpt>
      <trkpt lat="44.41171" lon="6.70915">
        <ele>1304</ele>
        <time>2024-10-21T09:36:01Z</time>
      </trkpt>
      <trkpt lat="44.41199" lon="6.70981">
        <ele>1307</ele>
        <time>2024-10-21T09:36:14Z</time>
      </trkpt>
      <trkpt lat="44.41213" lon="6.70991">
        <ele>1310</ele>
        <time>2024-10-21T09:36:18Z</time>
      </trkpt>
      <trkpt lat="44.41234" lon="6.71035">
        <ele>1310</ele>
        <time>2024-10-21T09:36:27Z</time>
      </trkpt>
      <trkpt lat="44.41247" lon="6.71058">
        <ele>1310</ele>
        <time>2024-10-21T09:36:31Z</time>
      </trkpt>
      <trkpt lat="44.41261" lon="6.71077">
        <ele>1311</ele>
        <time>2024-10-21T09:36:36Z</time>
      </trkpt>
      <trkpt lat="44.41274" lon="6.71102">
        <ele>1311</ele>
        <time>2024-10-21T09:36:41Z</time>
      </trkpt>
      <trkpt lat="44.41287" lon="6.71139">
        <ele>1311</ele>
        <time>2024-10-21T09:36:48Z</time>
      </trkpt>
      <trkpt lat="44.41327" lon="6.71212">
        <ele>1311</ele>
        <time>2024-10-21T09:37:03Z</time>
      </trkpt>
      <trkpt lat="44.41369" lon="6.71269">
        <ele>1310</ele>
        <time>2024-10-21T09:37:17Z</time>
      </trkpt>
      <trkpt lat="44.41394" lon="6.71312">
        <ele>1309</ele>
        <time>2024-10-21T09:37:26Z</time>
      </trkpt>
      <trkpt lat="44.41425" lon="6.71352">
        <ele>1309</ele>
        <time>2024-10-21T09:37:36Z</time>
      </trkpt>
      <trkpt lat="44.41488" lon="6.71413">
        <ele>1308</ele>
        <time>2024-10-21T09:37:54Z</time>
      </trkpt>
      <trkpt lat="44.41501" lon="6.71434">
        <ele>1308</ele>
        <time>2024-10-21T09:37:59Z</time>
      </trkpt>
      <trkpt lat="44.41507" lon="6.71455">
        <ele>1308</ele>
        <time>2024-10-21T09:38:02Z</time>
      </trkpt>
      <trkpt lat="44.41519" lon="6.71482">
        <ele>1308</ele>
        <time>2024-10-21T09:38:08Z</time>
      </trkpt>
      <trkpt lat="44.41525" lon="6.71506">
        <ele>1307</ele>
        <time>2024-10-21T09:38:12Z</time>
      </trkpt>
      <trkpt lat="44.41526" lon="6.71521">
        <ele>1308</ele>
        <time>2024-10-21T09:38:15Z</time>
      </trkpt>
      <trkpt lat="44.41523" lon="6.71545">
        <ele>1308</ele>
        <time>2024-10-21T09:38:19Z</time>
      </trkpt>
      <trkpt lat="44.41531" lon="6.71567">
        <ele>1309</ele>
        <time>2024-10-21T09:38:23Z</time>
      </trkpt>
      <trkpt lat="44.41533" lon="6.71588">
        <ele>1309</ele>
        <time>2024-10-21T09:38:26Z</time>
      </trkpt>
    </trkseg>
  </trk>
</gpx>